Time,TemperatureF,DewpointF,PressureIn,WindDirection,WindDirectionDegrees,WindSpeedMPH,WindSpeedGustMPH,Humidity,HourlyPrecipIn,Conditions,Clouds,dailyrainin,SoftwareType,DateUTC
2013-03-11 00:00:00,31.3,-5.1,30.24,WNW,292,0.0,0.0,20,0.00,,---,0.00,VWS V14.00,2013-03-11 07:00:00,
2013-03-11 00:03:00,31.5,-5.0,30.24,WNW,292,0.0,0.0,20,0.00,,---,0.00,VWS V14.00,2013-03-11 07:03:00,
2013-03-11 00:04:00,31.6,-4.8,30.24,WNW,292,0.0,0.0,20,0.00,,---,0.00,VWS V14.00,2013-03-11 07:04:00,
2013-03-11 00:05:00,31.6,-4.8,30.24,WNW,292,0.0,0.0,20,0.00,,---,0.00,VWS V14.00,2013-03-11 07:05:00,
2013-03-11 00:08:00,31.8,-4.7,30.24,WSW,248,0.0,0.0,20,0.00,,---,0.00,VWS V14.00,2013-03-11 07:08:00,
2013-03-11 00:09:00,31.6,-4.8,30.24,WSW,248,0.0,0.0,20,0.00,,---,0.00,VWS V14.00,2013-03-11 07:09:00,
2013-03-11 00:10:00,31.5,-5.0,30.24,WSW,248,0.0,0.0,20,0.00,,---,0.00,VWS V14.00,2013-03-11 07:10:00,
2013-03-11 00:13:00,31.5,-5.0,30.24,WSW,248,0.0,0.0,20,0.00,,---,0.00,VWS V14.00,2013-03-11 07:13:00,
2013-03-11 00:14:00,31.5,-5.0,30.24,WSW,248,0.0,0.0,20,0.00,,---,0.00,VWS V14.00,2013-03-11 07:14:00,
2013-03-11 00:15:00,31.5,-5.0,30.24,WSW,248,0.0,0.0,20,0.00,,---,0.00,VWS V14.00,2013-03-11 07:15:00,
2013-03-11 00:18:00,30.9,-5.4,30.24,WSW,248,0.0,0.0,20,0.00,,---,0.00,VWS V14.00,2013-03-11 07:18:00,
2013-03-11 00:19:00,30.9,-5.4,30.24,WSW,248,0.0,0.0,20,0.00,,---,0.00,VWS V14.00,2013-03-11 07:19:00,
2013-03-11 00:20:00,30.7,-5.6,30.24,WSW,248,0.0,0.0,20,0.00,,---,0.00,VWS V14.00,2013-03-11 07:20:00,
2013-03-11 00:21:00,30.7,-5.6,30.24,WSW,248,0.0,0.0,20,0.00,,---,0.00,VWS V14.00,2013-03-11 07:21:00,
2013-03-11 00:23:00,30.6,-5.7,30.24,WSW,248,0.0,0.0,20,0.00,,---,0.00,VWS V14.00,2013-03-11 07:23:00,
2013-03-11 00:24:00,30.6,-5.7,30.24,WSW,248,0.0,0.0,20,0.00,,---,0.00,VWS V14.00,2013-03-11 07:24:00,
2013-03-11 00:25:00,30.6,-5.7,30.24,ESE,112,0.0,0.0,20,0.00,,---,0.00,VWS V14.00,2013-03-11 07:25:00,
2013-03-11 00:27:00,30.6,-5.7,30.24,ESE,112,0.0,0.0,20,0.00,,---,0.00,VWS V14.00,2013-03-11 07:27:00,
2013-03-11 00:28:00,30.2,-6.0,30.24,ESE,112,2.0,2.0,20,0.00,,---,0.00,VWS V14.00,2013-03-11 07:28:00,
2013-03-11 00:29:00,30.2,-6.0,30.24,ESE,112,2.0,2.0,20,0.00,,---,0.00,VWS V14.00,2013-03-11 07:29:00,
2013-03-11 00:30:00,30.4,-5.9,30.24,SE,135,2.7,2.7,20,0.00,,---,0.00,VWS V14.00,2013-03-11 07:30:00,
2013-03-11 00:32:00,30.6,-5.7,30.24,SE,135,2.0,2.5,20,0.00,,---,0.00,VWS V14.00,2013-03-11 07:32:00,
2013-03-11 00:33:00,30.7,-5.6,30.24,SSE,158,1.3,2.5,20,0.00,,---,0.00,VWS V14.00,2013-03-11 07:33:00,
2013-03-11 00:34:00,30.7,-5.6,30.24,SSE,158,1.3,2.5,20,0.00,,---,0.00,VWS V14.00,2013-03-11 07:34:00,
2013-03-11 00:35:00,31.1,-2.4,30.24,SSE,158,0.0,2.5,23,0.00,,---,0.00,VWS V14.00,2013-03-11 07:35:00,
2013-03-11 00:37:00,31.5,-2.0,30.24,SSE,158,2.5,2.5,23,0.00,,---,0.00,VWS V14.00,2013-03-11 07:37:00,
2013-03-11 00:39:00,31.5,-2.0,30.24,SE,135,2.5,2.7,23,0.00,,---,0.00,VWS V14.00,2013-03-11 07:39:00,
2013-03-11 00:40:00,31.3,-2.2,30.24,SE,135,2.0,2.7,23,0.00,,---,0.00,VWS V14.00,2013-03-11 07:40:00,
2013-03-11 00:42:00,30.9,-2.5,30.21,SE,135,2.0,2.0,23,0.00,,---,0.00,VWS V14.00,2013-03-11 07:42:00,
2013-03-11 00:44:00,30.7,-2.7,30.21,SE,135,2.0,2.5,23,0.00,,---,0.00,VWS V14.00,2013-03-11 07:44:00,
2013-03-11 00:45:00,30.7,-2.7,30.21,SSE,158,2.7,2.7,23,0.00,,---,0.00,VWS V14.00,2013-03-11 07:45:00,
2013-03-11 00:46:00,30.7,-2.7,30.21,SSE,158,2.5,2.5,23,0.00,,---,0.00,VWS V14.00,2013-03-11 07:46:00,
2013-03-11 00:48:00,30.7,-2.7,30.21,South,180,0.0,2.5,23,0.00,,---,0.00,VWS V14.00,2013-03-11 07:48:00,
2013-03-11 00:49:00,30.7,-2.7,30.21,South,180,0.0,2.5,23,0.00,,---,0.00,VWS V14.00,2013-03-11 07:49:00,
2013-03-11 00:50:00,30.7,-2.7,30.21,South,180,0.0,2.5,23,0.00,,---,0.00,VWS V14.00,2013-03-11 07:50:00,
2013-03-11 00:51:00,30.7,-2.7,30.21,South,180,0.0,0.0,23,0.00,,---,0.00,VWS V14.00,2013-03-11 07:51:00,
2013-03-11 00:53:00,30.7,-2.7,30.21,South,180,0.0,0.0,23,0.00,,---,0.00,VWS V14.00,2013-03-11 07:53:00,
2013-03-11 00:54:00,30.7,-2.7,30.21,South,180,0.0,0.0,23,0.00,,---,0.00,VWS V14.00,2013-03-11 07:54:00,
2013-03-11 00:55:00,30.7,-2.7,30.21,South,180,0.0,0.0,23,0.00,,---,0.00,VWS V14.00,2013-03-11 07:55:00,
2013-03-11 00:56:00,30.7,-2.7,30.21,South,180,0.0,0.0,23,0.00,,---,0.00,VWS V14.00,2013-03-11 07:56:00,
2013-03-11 00:58:00,30.7,-2.7,30.21,SSW,202,2.0,2.2,23,0.00,,---,0.00,VWS V14.00,2013-03-11 07:58:00,
2013-03-11 00:59:00,30.7,-2.7,30.21,SSW,202,2.2,2.2,23,0.00,,---,0.00,VWS V14.00,2013-03-11 07:59:00,
2013-03-11 01:00:00,31.1,-2.4,30.21,SSW,202,2.5,2.5,23,0.00,,---,0.00,VWS V14.00,2013-03-11 08:00:00,
2013-03-11 01:01:00,31.1,-0.6,30.21,SSW,202,2.0,2.7,25,0.00,,---,0.00,VWS V14.00,2013-03-11 08:01:00,
2013-03-11 01:03:00,31.6,-0.1,30.21,SSW,202,1.1,2.7,25,0.00,,---,0.00,VWS V14.00,2013-03-11 08:03:00,
2013-03-11 01:04:00,31.6,-0.1,30.21,SSW,202,1.3,2.7,25,0.00,,---,0.00,VWS V14.00,2013-03-11 08:04:00,
2013-03-11 01:05:00,31.5,-2.0,30.21,SSW,202,0.0,2.7,23,0.00,,---,0.00,VWS V14.00,2013-03-11 08:05:00,
2013-03-11 01:06:00,31.5,-2.0,30.21,SSW,202,0.0,2.7,23,0.00,,---,0.00,VWS V14.00,2013-03-11 08:06:00,
2013-03-11 01:08:00,31.3,-2.2,30.21,SSW,202,0.0,2.7,23,0.00,,---,0.00,VWS V14.00,2013-03-11 08:08:00,
2013-03-11 01:09:00,31.3,-2.2,30.21,SSW,202,0.0,2.7,23,0.00,,---,0.00,VWS V14.00,2013-03-11 08:09:00,
2013-03-11 01:10:00,31.1,-2.4,30.21,SSW,202,0.0,2.7,23,0.00,,---,0.00,VWS V14.00,2013-03-11 08:10:00,
2013-03-11 01:11:00,31.1,-2.4,30.21,SSW,202,0.0,0.0,23,0.00,,---,0.00,VWS V14.00,2013-03-11 08:11:00,
2013-03-11 01:13:00,30.9,-2.5,30.21,SSW,202,0.0,0.0,23,0.00,,---,0.00,VWS V14.00,2013-03-11 08:13:00,
2013-03-11 01:14:00,30.7,-2.7,30.21,SSW,202,0.0,0.0,23,0.00,,---,0.00,VWS V14.00,2013-03-11 08:14:00,
2013-03-11 01:15:00,30.7,-2.7,30.21,SSW,202,0.0,0.0,23,0.00,,---,0.00,VWS V14.00,2013-03-11 08:15:00,
2013-03-11 01:17:00,30.4,-3.0,30.21,SSW,202,0.0,0.0,23,0.00,,---,0.00,VWS V14.00,2013-03-11 08:17:00,
2013-03-11 01:18:00,30.4,-3.0,30.21,SSW,202,0.0,0.0,23,0.00,,---,0.00,VWS V14.00,2013-03-11 08:18:00,
2013-03-11 01:20:00,30.4,-3.0,30.21,SSW,202,0.0,0.0,23,0.00,,---,0.00,VWS V14.00,2013-03-11 08:20:00,
2013-03-11 01:21:00,30.7,-2.7,30.21,SSW,202,0.0,0.0,23,0.00,,---,0.00,VWS V14.00,2013-03-11 08:21:00,
2013-03-11 01:22:00,30.7,-2.7,30.21,SSW,202,0.0,0.0,23,0.00,,---,0.00,VWS V14.00,2013-03-11 08:22:00,
2013-03-11 01:24:00,30.7,-2.7,30.21,SSW,202,0.0,0.0,23,0.00,,---,0.00,VWS V14.00,2013-03-11 08:24:00,
2013-03-11 01:25:00,30.4,-3.0,30.21,SSW,202,0.0,0.0,23,0.00,,---,0.00,VWS V14.00,2013-03-11 08:25:00,
2013-03-11 01:26:00,30.4,-3.0,30.21,SSW,202,0.0,0.0,23,0.00,,---,0.00,VWS V14.00,2013-03-11 08:26:00,
2013-03-11 01:27:00,30.2,-3.1,30.21,SSW,202,0.0,0.0,23,0.00,,---,0.00,VWS V14.00,2013-03-11 08:27:00,
2013-03-11 01:29:00,30.2,-3.1,30.21,SSW,202,0.0,0.0,23,0.00,,---,0.00,VWS V14.00,2013-03-11 08:29:00,
2013-03-11 01:30:00,30.0,-3.3,30.21,SSW,202,0.0,0.0,23,0.00,,---,0.00,VWS V14.00,2013-03-11 08:30:00,
2013-03-11 01:31:00,29.5,-3.7,30.21,WNW,292,0.0,0.0,23,0.00,,---,0.00,VWS V14.00,2013-03-11 08:31:00,
2013-03-11 01:32:00,29.5,-3.7,30.21,WNW,292,0.0,0.0,23,0.00,,---,0.00,VWS V14.00,2013-03-11 08:32:00,
2013-03-11 01:34:00,29.3,-3.9,30.21,WNW,292,0.0,0.0,23,0.00,,---,0.00,VWS V14.00,2013-03-11 08:34:00,
2013-03-11 01:35:00,28.9,-4.2,30.21,WNW,292,0.0,0.0,23,0.00,,---,0.00,VWS V14.00,2013-03-11 08:35:00,
2013-03-11 01:36:00,28.9,-4.2,30.21,WNW,292,0.0,0.0,23,0.00,,---,0.00,VWS V14.00,2013-03-11 08:36:00,
2013-03-11 01:37:00,28.8,-4.3,30.21,WNW,292,0.0,0.0,23,0.00,,---,0.00,VWS V14.00,2013-03-11 08:37:00,
2013-03-11 01:39:00,28.6,-4.5,30.21,WNW,292,0.0,0.0,23,0.00,,---,0.00,VWS V14.00,2013-03-11 08:39:00,
2013-03-11 01:40:00,28.6,-4.5,30.21,WNW,292,0.0,0.0,23,0.00,,---,0.00,VWS V14.00,2013-03-11 08:40:00,
2013-03-11 01:41:00,28.4,-4.7,30.21,WNW,292,0.0,0.0,23,0.00,,---,0.00,VWS V14.00,2013-03-11 08:41:00,
2013-03-11 01:42:00,28.4,-4.7,30.21,WNW,292,0.0,0.0,23,0.00,,---,0.00,VWS V14.00,2013-03-11 08:42:00,
2013-03-11 01:44:00,28.4,-4.7,30.21,WNW,292,0.0,0.0,23,0.00,,---,0.00,VWS V14.00,2013-03-11 08:44:00,
2013-03-11 01:45:00,28.4,-4.7,30.21,WNW,292,0.0,0.0,23,0.00,,---,0.00,VWS V14.00,2013-03-11 08:45:00,
2013-03-11 01:47:00,28.4,-4.7,30.21,WNW,292,0.0,0.0,23,0.00,,---,0.00,VWS V14.00,2013-03-11 08:47:00,
2013-03-11 01:48:00,28.4,-4.7,30.21,WNW,292,0.0,0.0,23,0.00,,---,0.00,VWS V14.00,2013-03-11 08:48:00,
2013-03-11 01:49:00,28.4,-4.7,30.21,WNW,292,0.0,0.0,23,0.00,,---,0.00,VWS V14.00,2013-03-11 08:49:00,
2013-03-11 01:50:00,28.4,-4.7,30.21,WNW,292,0.0,0.0,23,0.00,,---,0.00,VWS V14.00,2013-03-11 08:50:00,
2013-03-11 01:53:00,28.4,-4.7,30.21,WNW,292,0.0,0.0,23,0.00,,---,0.00,VWS V14.00,2013-03-11 08:53:00,
2013-03-11 01:54:00,27.3,-5.6,30.21,WNW,292,0.0,0.0,23,0.00,,---,0.00,VWS V14.00,2013-03-11 08:54:00,
2013-03-11 01:55:00,27.3,-5.6,30.21,WNW,292,0.0,0.0,23,0.00,,---,0.00,VWS V14.00,2013-03-11 08:55:00,
2013-03-11 01:58:00,27.1,-5.7,30.21,WNW,292,0.0,0.0,23,0.00,,---,0.00,VWS V14.00,2013-03-11 08:58:00,
2013-03-11 01:59:00,27.1,-5.7,30.21,WNW,292,0.0,0.0,23,0.00,,---,0.00,VWS V14.00,2013-03-11 08:59:00,
2013-03-11 02:00:00,29.1,1.6,30.18,ESE,112,1.6,2.7,30,0.00,,---,0.00,VWS V14.00,2013-03-11 09:00:00,
2013-03-11 02:01:00,27.1,-5.7,30.21,WNW,292,0.0,0.0,23,0.00,,---,0.00,VWS V14.00,2013-03-11 09:01:00,
2013-03-11 02:03:00,27.1,-5.7,30.21,WNW,292,0.0,0.0,23,0.00,,---,0.00,VWS V14.00,2013-03-11 09:03:00,
2013-03-11 02:04:00,27.9,-5.1,30.21,WNW,292,0.0,0.0,23,0.00,,---,0.00,VWS V14.00,2013-03-11 09:04:00,
2013-03-11 02:05:00,28.9,2.1,30.18,SE,135,0.0,2.0,31,0.00,,---,0.00,VWS V14.00,2013-03-11 09:05:00,
2013-03-11 02:06:00,28.4,-4.7,30.21,WNW,292,0.0,0.0,23,0.00,,---,0.00,VWS V14.00,2013-03-11 09:06:00,
2013-03-11 02:08:00,28.4,-4.7,30.21,West,270,0.0,0.0,23,0.00,,---,0.00,VWS V14.00,2013-03-11 09:08:00,
2013-03-11 02:09:00,28.6,-2.8,30.21,West,270,0.0,0.0,25,0.00,,---,0.00,VWS V14.00,2013-03-11 09:09:00,
2013-03-11 02:10:00,28.8,1.2,30.18,SSW,202,0.0,2.5,30,0.00,,---,0.00,VWS V14.00,2013-03-11 09:10:00,
2013-03-11 02:11:00,28.4,-2.1,30.21,West,270,0.0,0.0,26,0.00,,---,0.00,VWS V14.00,2013-03-11 09:11:00,
2013-03-11 02:13:00,28.4,-2.1,30.21,West,270,0.0,0.0,26,0.00,,---,0.00,VWS V14.00,2013-03-11 09:13:00,
2013-03-11 02:14:00,28.4,-2.1,30.21,West,270,0.0,0.0,26,0.00,,---,0.00,VWS V14.00,2013-03-11 09:14:00,
2013-03-11 02:15:00,28.6,1.8,30.18,SW,225,2.7,3.1,31,0.00,,---,0.00,VWS V14.00,2013-03-11 09:15:00,
2013-03-11 02:16:00,28.4,-2.1,30.21,West,270,0.0,0.0,26,0.00,,---,0.00,VWS V14.00,2013-03-11 09:16:00,
2013-03-11 02:18:00,28.4,-2.1,30.21,West,270,0.0,0.0,26,0.00,,---,0.00,VWS V14.00,2013-03-11 09:18:00,
2013-03-11 02:19:00,27.7,-2.7,30.21,West,270,0.0,0.0,26,0.00,,---,0.00,VWS V14.00,2013-03-11 09:19:00,
2013-03-11 02:20:00,28.8,2.0,30.18,SW,225,1.6,3.1,31,0.00,,---,0.00,VWS V14.00,2013-03-11 09:20:00,
2013-03-11 02:21:00,27.5,-2.9,30.21,West,270,0.0,0.0,26,0.00,,---,0.00,VWS V14.00,2013-03-11 09:21:00,
2013-03-11 02:23:00,27.5,-2.9,30.21,West,270,0.0,0.0,26,0.00,,---,0.00,VWS V14.00,2013-03-11 09:23:00,
2013-03-11 02:24:00,27.5,-2.9,30.21,West,270,0.0,0.0,26,0.00,,---,0.00,VWS V14.00,2013-03-11 09:24:00,
2013-03-11 02:25:00,28.6,1.8,30.18,SW,225,0.0,2.7,31,0.00,,---,0.00,VWS V14.00,2013-03-11 09:25:00,
2013-03-11 02:26:00,27.5,-2.9,30.21,West,270,0.0,0.0,26,0.00,,---,0.00,VWS V14.00,2013-03-11 09:26:00,
2013-03-11 02:28:00,27.5,-2.9,30.21,WSW,248,0.0,0.0,26,0.00,,---,0.00,VWS V14.00,2013-03-11 09:28:00,
2013-03-11 02:29:00,27.5,-2.9,30.21,WSW,248,0.0,0.0,26,0.00,,---,0.00,VWS V14.00,2013-03-11 09:29:00,
2013-03-11 02:30:00,27.5,-2.9,30.21,SW,225,0.0,0.0,26,0.00,,---,0.00,VWS V14.00,2013-03-11 09:30:00,
2013-03-11 02:32:00,28.6,1.1,30.21,WSW,248,0.0,2.9,30,0.00,,---,0.00,VWS V14.00,2013-03-11 09:32:00,
2013-03-11 02:33:00,28.6,1.1,30.21,WSW,248,0.0,2.9,30,0.00,,---,0.00,VWS V14.00,2013-03-11 09:33:00,
2013-03-11 02:34:00,28.6,1.1,30.21,WSW,248,0.0,2.9,30,0.00,,---,0.00,VWS V14.00,2013-03-11 09:34:00,
2013-03-11 02:35:00,28.6,1.1,30.21,WSW,248,0.0,2.9,30,0.00,,---,0.00,VWS V14.00,2013-03-11 09:35:00,
2013-03-11 02:37:00,28.6,-0.4,30.21,WSW,248,0.0,0.0,28,0.00,,---,0.00,VWS V14.00,2013-03-11 09:37:00,
2013-03-11 02:39:00,28.6,-0.4,30.21,WSW,248,0.0,0.0,28,0.00,,---,0.00,VWS V14.00,2013-03-11 09:39:00,
2013-03-11 02:40:00,28.6,-0.4,30.21,WSW,248,0.0,0.9,28,0.00,,---,0.00,VWS V14.00,2013-03-11 09:40:00,
2013-03-11 02:42:00,28.6,-0.4,30.21,WSW,248,0.0,0.0,28,0.00,,---,0.00,VWS V14.00,2013-03-11 09:42:00,
2013-03-11 02:44:00,28.8,-0.2,30.18,WSW,248,0.0,0.0,28,0.00,,---,0.00,VWS V14.00,2013-03-11 09:44:00,
2013-03-11 02:45:00,28.8,-0.2,30.18,WSW,248,0.0,0.0,28,0.00,,---,0.00,VWS V14.00,2013-03-11 09:45:00,
2013-03-11 02:48:00,29.5,1.9,30.18,SW,225,0.9,2.7,30,0.00,,---,0.00,VWS V14.00,2013-03-11 09:48:00,
2013-03-11 02:49:00,29.5,1.9,30.18,SW,225,0.9,2.7,30,0.00,,---,0.00,VWS V14.00,2013-03-11 09:49:00,
2013-03-11 02:50:00,29.5,1.9,30.18,SW,225,0.0,2.7,30,0.00,,---,0.00,VWS V14.00,2013-03-11 09:50:00,
2013-03-11 02:53:00,28.9,-0.1,30.18,SW,225,0.0,0.0,28,0.00,,---,0.00,VWS V14.00,2013-03-11 09:53:00,
2013-03-11 02:54:00,28.9,-0.1,30.18,SW,225,0.0,0.0,28,0.00,,---,0.00,VWS V14.00,2013-03-11 09:54:00,
2013-03-11 02:55:00,28.9,-0.1,30.18,SW,225,0.0,0.0,28,0.00,,---,0.00,VWS V14.00,2013-03-11 09:55:00,
2013-03-11 02:56:00,28.9,1.4,30.18,SW,225,0.0,0.0,30,0.00,,---,0.00,VWS V14.00,2013-03-11 09:56:00,
2013-03-11 02:58:00,28.9,-0.1,30.18,SSW,202,0.0,0.0,28,0.00,,---,0.00,VWS V14.00,2013-03-11 09:58:00,
2013-03-11 02:59:00,28.9,-0.1,30.18,SSW,202,0.0,0.0,28,0.00,,---,0.00,VWS V14.00,2013-03-11 09:59:00,
2013-03-11 03:00:00,28.9,-0.1,30.18,ESE,112,1.6,2.7,28,0.00,,---,0.00,VWS V14.00,2013-03-11 10:00:00,
2013-03-11 03:01:00,28.9,1.4,30.18,ESE,112,2.0,2.0,30,0.00,,---,0.00,VWS V14.00,2013-03-11 10:01:00,
2013-03-11 03:03:00,28.9,2.1,30.18,East,90,0.0,2.0,31,0.00,,---,0.00,VWS V14.00,2013-03-11 10:03:00,
2013-03-11 03:04:00,28.9,2.1,30.18,East,90,0.0,2.0,31,0.00,,---,0.00,VWS V14.00,2013-03-11 10:04:00,
2013-03-11 03:05:00,28.9,2.1,30.18,SE,135,0.0,2.0,31,0.00,,---,0.00,VWS V14.00,2013-03-11 10:05:00,
2013-03-11 03:07:00,28.6,1.1,30.18,South,180,0.0,0.0,30,0.00,,---,0.00,VWS V14.00,2013-03-11 10:07:00,
2013-03-11 03:08:00,28.6,1.1,30.18,South,180,2.5,2.5,30,0.00,,---,0.00,VWS V14.00,2013-03-11 10:08:00,
2013-03-11 03:09:00,28.6,1.1,30.18,South,180,2.2,2.5,30,0.00,,---,0.00,VWS V14.00,2013-03-11 10:09:00,
2013-03-11 03:10:00,28.8,1.2,30.18,South,180,0.0,2.5,30,0.00,,---,0.00,VWS V14.00,2013-03-11 10:10:00,
2013-03-11 03:12:00,28.6,1.8,30.18,SSW,202,0.0,0.0,31,0.00,,---,0.00,VWS V14.00,2013-03-11 10:12:00,
2013-03-11 03:13:00,28.6,1.8,30.18,South,180,2.7,2.7,31,0.00,,---,0.00,VWS V14.00,2013-03-11 10:13:00,
2013-03-11 03:14:00,28.6,1.8,30.18,SSW,202,2.7,2.7,31,0.00,,---,0.00,VWS V14.00,2013-03-11 10:14:00,
2013-03-11 03:15:00,28.6,1.8,30.18,SW,225,2.9,3.1,31,0.00,,---,0.00,VWS V14.00,2013-03-11 10:15:00,
2013-03-11 03:17:00,28.6,1.8,30.18,SW,225,2.7,2.9,31,0.00,,---,0.00,VWS V14.00,2013-03-11 10:17:00,
2013-03-11 03:18:00,28.6,1.8,30.18,SW,225,2.7,3.1,31,0.00,,---,0.00,VWS V14.00,2013-03-11 10:18:00,
2013-03-11 03:19:00,28.6,1.8,30.18,SW,225,2.7,3.1,31,0.00,,---,0.00,VWS V14.00,2013-03-11 10:19:00,
2013-03-11 03:20:00,28.6,1.8,30.18,SW,225,2.7,3.1,31,0.00,,---,0.00,VWS V14.00,2013-03-11 10:20:00,
2013-03-11 03:22:00,28.8,2.0,30.18,SW,225,0.0,2.7,31,0.00,,---,0.00,VWS V14.00,2013-03-11 10:22:00,
2013-03-11 03:24:00,28.8,2.0,30.18,SW,225,0.0,2.7,31,0.00,,---,0.00,VWS V14.00,2013-03-11 10:24:00,
2013-03-11 03:25:00,28.6,1.8,30.18,SW,225,0.0,2.7,31,0.00,,---,0.00,VWS V14.00,2013-03-11 10:25:00,
2013-03-11 03:27:00,28.6,1.8,30.18,SW,225,0.0,0.0,31,0.00,,---,0.00,VWS V14.00,2013-03-11 10:27:00,
2013-03-11 03:29:00,28.4,1.6,30.15,SW,225,0.0,0.0,31,0.00,,---,0.00,VWS V14.00,2013-03-11 10:29:00,
2013-03-11 03:30:00,28.2,1.5,30.15,SW,225,0.0,0.0,31,0.00,,---,0.00,VWS V14.00,2013-03-11 10:30:00,
2013-03-11 03:32:00,27.9,1.2,30.15,SW,225,0.0,0.0,31,0.00,,---,0.00,VWS V14.00,2013-03-11 10:32:00,
2013-03-11 03:34:00,27.9,1.2,30.15,SW,225,0.0,0.0,31,0.00,,---,0.00,VWS V14.00,2013-03-11 10:34:00,
2013-03-11 03:35:00,27.9,1.2,30.15,SW,225,0.0,0.0,31,0.00,,---,0.00,VWS V14.00,2013-03-11 10:35:00,
2013-03-11 03:37:00,27.9,1.2,30.15,SW,225,0.0,0.0,31,0.00,,---,0.00,VWS V14.00,2013-03-11 10:37:00,
2013-03-11 03:39:00,27.7,1.0,30.15,SW,225,0.0,0.0,31,0.00,,---,0.00,VWS V14.00,2013-03-11 10:39:00,
2013-03-11 03:40:00,27.7,1.0,30.15,SW,225,0.0,0.0,31,0.00,,---,0.00,VWS V14.00,2013-03-11 10:40:00,
2013-03-11 03:42:00,27.3,0.7,30.18,SW,225,0.0,0.0,31,0.00,,---,0.00,VWS V14.00,2013-03-11 10:42:00,
2013-03-11 03:44:00,27.3,0.7,30.18,SW,225,0.0,0.0,31,0.00,,---,0.00,VWS V14.00,2013-03-11 10:44:00,
2013-03-11 03:45:00,25.5,0.4,30.18,South,180,0.0,0.0,33,0.00,,---,0.00,VWS V14.00,2013-03-11 10:45:00,
2013-03-11 03:46:00,27.1,0.5,30.18,SW,225,0.0,0.0,31,0.00,,---,0.00,VWS V14.00,2013-03-11 10:46:00,
2013-03-11 03:47:00,27.0,0.4,30.18,SW,225,0.0,0.0,31,0.00,,---,0.00,VWS V14.00,2013-03-11 10:47:00,
2013-03-11 03:49:00,26.8,0.2,30.18,SW,225,0.0,0.0,31,0.00,,---,0.00,VWS V14.00,2013-03-11 10:49:00,
2013-03-11 03:50:00,26.8,0.2,30.18,SW,225,0.0,0.0,31,0.00,,---,0.00,VWS V14.00,2013-03-11 10:50:00,
2013-03-11 03:51:00,26.8,0.2,30.18,SW,225,0.0,0.0,31,0.00,,---,0.00,VWS V14.00,2013-03-11 10:51:00,
2013-03-11 03:52:00,26.6,0.7,30.18,SW,225,0.0,0.0,32,0.00,,---,0.00,VWS V14.00,2013-03-11 10:52:00,
2013-03-11 03:55:00,26.6,0.7,30.18,SW,225,0.0,0.0,32,0.00,,---,0.00,VWS V14.00,2013-03-11 10:55:00,
2013-03-11 03:56:00,26.6,0.7,30.18,SW,225,0.0,0.0,32,0.00,,---,0.00,VWS V14.00,2013-03-11 10:56:00,
2013-03-11 03:57:00,26.2,0.4,30.18,SW,225,0.0,0.0,32,0.00,,---,0.00,VWS V14.00,2013-03-11 10:57:00,
2013-03-11 04:00:00,26.1,0.2,30.18,SW,225,0.0,0.0,32,0.00,,---,0.00,VWS V14.00,2013-03-11 11:00:00,
2013-03-11 04:01:00,25.9,0.1,30.18,SW,225,0.0,0.0,32,0.00,,---,0.00,VWS V14.00,2013-03-11 11:01:00,
2013-03-11 04:02:00,25.7,-0.1,30.18,SW,225,0.0,0.0,32,0.00,,---,0.00,VWS V14.00,2013-03-11 11:02:00,
2013-03-11 04:05:00,25.7,-0.1,30.18,SW,225,0.0,0.0,32,0.00,,---,0.00,VWS V14.00,2013-03-11 11:05:00,
2013-03-11 04:06:00,25.9,0.1,30.18,SW,225,0.0,0.0,32,0.00,,---,0.00,VWS V14.00,2013-03-11 11:06:00,
2013-03-11 04:07:00,25.9,0.1,30.18,SW,225,0.0,0.0,32,0.00,,---,0.00,VWS V14.00,2013-03-11 11:07:00,
2013-03-11 04:10:00,25.9,0.1,30.18,SW,225,0.0,0.0,32,0.00,,---,0.00,VWS V14.00,2013-03-11 11:10:00,
2013-03-11 04:11:00,25.9,0.1,30.18,SW,225,0.0,0.0,32,0.00,,---,0.00,VWS V14.00,2013-03-11 11:11:00,
2013-03-11 04:13:00,25.9,0.1,30.18,NNW,338,0.0,0.0,32,0.00,,---,0.00,VWS V14.00,2013-03-11 11:13:00,
2013-03-11 04:15:00,25.5,-0.2,30.18,NNW,338,0.0,2.2,32,0.00,,---,0.00,VWS V14.00,2013-03-11 11:15:00,
2013-03-11 04:16:00,25.5,-0.2,30.18,NNW,338,0.0,0.0,32,0.00,,---,0.00,VWS V14.00,2013-03-11 11:16:00,
2013-03-11 04:18:00,25.5,-0.2,30.18,NNW,338,0.0,0.0,32,0.00,,---,0.00,VWS V14.00,2013-03-11 11:18:00,
2013-03-11 04:20:00,25.5,-0.2,30.18,NNW,338,0.0,0.0,32,0.00,,---,0.00,VWS V14.00,2013-03-11 11:20:00,
2013-03-11 04:21:00,25.5,-0.2,30.18,NNW,338,0.0,0.0,32,0.00,,---,0.00,VWS V14.00,2013-03-11 11:21:00,
2013-03-11 04:23:00,25.5,-0.2,30.18,NNW,338,0.0,0.0,32,0.00,,---,0.00,VWS V14.00,2013-03-11 11:23:00,
2013-03-11 04:25:00,25.5,-0.2,30.18,NNW,338,0.0,0.0,32,0.00,,---,0.00,VWS V14.00,2013-03-11 11:25:00,
2013-03-11 04:26:00,25.5,-0.2,30.18,NNW,338,0.0,0.0,32,0.00,,---,0.00,VWS V14.00,2013-03-11 11:26:00,
2013-03-11 04:27:00,25.3,-0.4,30.18,SSE,158,0.0,0.0,32,0.00,,---,0.00,VWS V14.00,2013-03-11 11:27:00,
2013-03-11 04:28:00,25.3,-0.4,30.18,SSE,158,0.0,2.7,32,0.00,,---,0.00,VWS V14.00,2013-03-11 11:28:00,
2013-03-11 04:30:00,25.9,0.1,30.18,SSE,158,0.0,2.7,32,0.00,,---,0.00,VWS V14.00,2013-03-11 11:30:00,
2013-03-11 04:31:00,26.1,0.2,30.18,South,180,0.0,0.0,32,0.00,,---,0.00,VWS V14.00,2013-03-11 11:31:00,
2013-03-11 04:32:00,26.1,0.2,30.18,South,180,0.0,0.0,32,0.00,,---,0.00,VWS V14.00,2013-03-11 11:32:00,
2013-03-11 04:33:00,26.1,0.2,30.18,South,180,0.0,0.0,32,0.00,,---,0.00,VWS V14.00,2013-03-11 11:33:00,
2013-03-11 04:35:00,25.9,0.1,30.18,South,180,0.0,0.0,32,0.00,,---,0.00,VWS V14.00,2013-03-11 11:35:00,
2013-03-11 04:36:00,25.9,0.1,30.18,South,180,0.0,0.0,32,0.00,,---,0.00,VWS V14.00,2013-03-11 11:36:00,
2013-03-11 04:37:00,25.9,0.1,30.18,South,180,0.0,0.0,32,0.00,,---,0.00,VWS V14.00,2013-03-11 11:37:00,
2013-03-11 04:38:00,25.7,-0.1,30.18,South,180,0.0,0.0,32,0.00,,---,0.00,VWS V14.00,2013-03-11 11:38:00,
2013-03-11 04:40:00,25.7,-0.1,30.18,South,180,0.0,0.0,32,0.00,,---,0.00,VWS V14.00,2013-03-11 11:40:00,
2013-03-11 04:41:00,25.5,0.4,30.18,South,180,0.0,0.0,33,0.00,,---,0.00,VWS V14.00,2013-03-11 11:41:00,
2013-03-11 04:42:00,25.5,0.4,30.18,South,180,0.0,0.0,33,0.00,,---,0.00,VWS V14.00,2013-03-11 11:42:00,
2013-03-11 04:43:00,25.5,0.4,30.18,South,180,0.0,0.0,33,0.00,,---,0.00,VWS V14.00,2013-03-11 11:43:00,
2013-03-11 04:45:00,25.7,0.6,30.15,SW,225,0.0,0.0,33,0.00,,---,0.00,VWS V14.00,2013-03-11 11:45:00,
2013-03-11 04:46:00,25.5,0.4,30.18,South,180,0.0,0.0,33,0.00,,---,0.00,VWS V14.00,2013-03-11 11:46:00,
2013-03-11 04:47:00,25.5,0.4,30.18,South,180,0.0,0.0,33,0.00,,---,0.00,VWS V14.00,2013-03-11 11:47:00,
2013-03-11 04:48:00,25.7,0.6,30.18,South,180,0.0,0.0,33,0.00,,---,0.00,VWS V14.00,2013-03-11 11:48:00,
2013-03-11 04:50:00,25.2,0.1,30.15,SW,225,0.0,0.0,33,0.00,,---,0.00,VWS V14.00,2013-03-11 11:50:00,
2013-03-11 04:51:00,25.5,0.4,30.18,South,180,0.0,0.0,33,0.00,,---,0.00,VWS V14.00,2013-03-11 11:51:00,
2013-03-11 04:52:00,25.3,0.3,30.18,WSW,248,0.0,0.0,33,0.00,,---,0.00,VWS V14.00,2013-03-11 11:52:00,
2013-03-11 04:53:00,25.3,0.3,30.18,WSW,248,0.0,0.0,33,0.00,,---,0.00,VWS V14.00,2013-03-11 11:53:00,
2013-03-11 04:55:00,25.0,-0.1,30.15,SW,225,0.0,0.0,33,0.00,,---,0.00,VWS V14.00,2013-03-11 11:55:00,
2013-03-11 04:56:00,25.3,0.3,30.18,WSW,248,0.0,0.0,33,0.00,,---,0.00,VWS V14.00,2013-03-11 11:56:00,
2013-03-11 04:57:00,25.3,0.3,30.18,WSW,248,0.0,0.0,33,0.00,,---,0.00,VWS V14.00,2013-03-11 11:57:00,
2013-03-11 04:58:00,25.3,0.3,30.18,WSW,248,0.0,0.0,33,0.00,,---,0.00,VWS V14.00,2013-03-11 11:58:00,
2013-03-11 04:59:00,25.3,0.3,30.18,WSW,248,0.0,0.0,33,0.00,,---,0.00,VWS V14.00,2013-03-11 11:59:00,
2013-03-11 05:00:00,24.6,-0.4,30.21,SW,225,0.0,0.0,33,0.00,,---,0.00,VWS V14.00,2013-03-11 12:00:00,
2013-03-11 05:01:00,25.0,-0.1,30.18,ESE,112,0.0,0.0,33,0.00,,---,0.00,VWS V14.00,2013-03-11 12:01:00,
2013-03-11 05:02:00,25.0,-0.1,30.18,East,90,0.0,0.0,33,0.00,,---,0.00,VWS V14.00,2013-03-11 12:02:00,
2013-03-11 05:03:00,24.8,0.4,30.18,East,90,0.0,0.0,34,0.00,,---,0.00,VWS V14.00,2013-03-11 12:03:00,
2013-03-11 05:04:00,24.8,0.4,30.18,East,90,0.0,0.0,34,0.00,,---,0.00,VWS V14.00,2013-03-11 12:04:00,
2013-03-11 05:05:00,24.4,-0.5,30.21,SW,225,0.0,0.0,33,0.00,,---,0.00,VWS V14.00,2013-03-11 12:05:00,
2013-03-11 05:06:00,24.8,-0.2,30.18,NE,45,2.5,2.5,33,0.00,,---,0.00,VWS V14.00,2013-03-11 12:06:00,
2013-03-11 05:07:00,24.8,-0.2,30.18,NE,45,0.0,2.5,33,0.00,,---,0.00,VWS V14.00,2013-03-11 12:07:00,
2013-03-11 05:09:00,24.8,-0.2,30.18,NE,45,0.0,2.5,33,0.00,,---,0.00,VWS V14.00,2013-03-11 12:09:00,
2013-03-11 05:10:00,24.4,-0.5,30.21,SW,225,0.0,0.0,33,0.00,,---,0.00,VWS V14.00,2013-03-11 12:10:00,
2013-03-11 05:11:00,24.8,0.4,30.18,NE,45,0.0,2.5,34,0.00,,---,0.00,VWS V14.00,2013-03-11 12:11:00,
2013-03-11 05:12:00,25.2,0.1,30.15,ENE,68,0.0,0.0,33,0.00,,---,0.00,VWS V14.00,2013-03-11 12:12:00,
2013-03-11 05:14:00,25.3,0.9,30.15,ENE,68,0.0,0.0,34,0.00,,---,0.00,VWS V14.00,2013-03-11 12:14:00,
2013-03-11 05:15:00,24.1,-0.2,30.21,SW,225,0.0,0.0,34,0.00,,---,0.00,VWS V14.00,2013-03-11 12:15:00,
2013-03-11 05:16:00,25.5,1.1,30.15,ENE,68,0.0,0.0,34,0.00,,---,0.00,VWS V14.00,2013-03-11 12:16:00,
2013-03-11 05:17:00,25.5,1.1,30.15,ENE,68,0.0,0.0,34,0.00,,---,0.00,VWS V14.00,2013-03-11 12:17:00,
2013-03-11 05:19:00,25.3,0.3,30.15,ENE,68,0.0,0.0,33,0.00,,---,0.00,VWS V14.00,2013-03-11 12:19:00,
2013-03-11 05:20:00,23.5,-0.1,30.21,SW,225,0.0,0.0,35,0.00,,---,0.00,VWS V14.00,2013-03-11 12:20:00,
2013-03-11 05:21:00,25.5,1.1,30.15,ENE,68,0.0,0.0,34,0.00,,---,0.00,VWS V14.00,2013-03-11 12:21:00,
2013-03-11 05:22:00,25.5,1.1,30.15,ENE,68,0.0,0.0,34,0.00,,---,0.00,VWS V14.00,2013-03-11 12:22:00,
2013-03-11 05:24:00,25.9,1.4,30.15,ENE,68,0.0,0.0,34,0.00,,---,0.00,VWS V14.00,2013-03-11 12:24:00,
2013-03-11 05:25:00,23.4,-0.2,30.21,SW,225,0.0,0.0,35,0.00,,---,0.00,VWS V14.00,2013-03-11 12:25:00,
2013-03-11 05:27:00,26.1,0.9,30.15,ENE,68,0.0,0.0,33,0.00,,---,0.00,VWS V14.00,2013-03-11 12:27:00,
2013-03-11 05:28:00,26.1,0.9,30.18,SSE,158,0.0,0.0,33,0.00,,---,0.00,VWS V14.00,2013-03-11 12:28:00,
2013-03-11 05:29:00,26.1,0.9,30.18,South,180,0.0,0.0,33,0.00,,---,0.00,VWS V14.00,2013-03-11 12:29:00,
2013-03-11 05:32:00,26.6,1.4,30.18,South,180,0.0,0.0,33,0.00,,---,0.00,VWS V14.00,2013-03-11 12:32:00,
2013-03-11 05:33:00,26.6,1.4,30.18,South,180,0.0,0.0,33,0.00,,---,0.00,VWS V14.00,2013-03-11 12:33:00,
2013-03-11 05:34:00,26.4,1.2,30.18,South,180,0.0,0.0,33,0.00,,---,0.00,VWS V14.00,2013-03-11 12:34:00,
2013-03-11 05:35:00,22.6,-0.9,30.18,SW,225,0.0,0.0,35,0.00,,---,0.00,VWS V14.00,2013-03-11 12:35:00,
2013-03-11 05:37:00,26.2,1.1,30.18,South,180,0.0,0.0,33,0.00,,---,0.00,VWS V14.00,2013-03-11 12:37:00,
2013-03-11 05:39:00,26.1,0.9,30.18,South,180,0.0,0.0,33,0.00,,---,0.00,VWS V14.00,2013-03-11 12:39:00,
2013-03-11 05:40:00,26.1,0.9,30.18,South,180,0.0,0.0,33,0.00,,---,0.00,VWS V14.00,2013-03-11 12:40:00,
2013-03-11 05:42:00,26.1,0.9,30.18,SW,225,0.0,0.0,33,0.00,,---,0.00,VWS V14.00,2013-03-11 12:42:00,
2013-03-11 05:44:00,25.9,1.4,30.15,SW,225,0.0,0.0,34,0.00,,---,0.00,VWS V14.00,2013-03-11 12:44:00,
2013-03-11 05:45:00,25.9,1.4,30.15,SW,225,0.0,0.0,34,0.00,,---,0.00,VWS V14.00,2013-03-11 12:45:00,
2013-03-11 05:47:00,25.3,0.3,30.15,SW,225,0.0,0.0,33,0.00,,---,0.00,VWS V14.00,2013-03-11 12:47:00,
2013-03-11 05:49:00,25.3,0.3,30.15,SW,225,0.0,0.0,33,0.00,,---,0.00,VWS V14.00,2013-03-11 12:49:00,
2013-03-11 05:50:00,25.3,0.3,30.15,SW,225,0.0,0.0,33,0.00,,---,0.00,VWS V14.00,2013-03-11 12:50:00,
2013-03-11 05:52:00,25.0,-0.1,30.15,SW,225,0.0,0.0,33,0.00,,---,0.00,VWS V14.00,2013-03-11 12:52:00,
2013-03-11 05:54:00,25.0,-0.1,30.15,SW,225,0.0,0.0,33,0.00,,---,0.00,VWS V14.00,2013-03-11 12:54:00,
2013-03-11 05:55:00,25.0,-0.1,30.15,SW,225,0.0,0.0,33,0.00,,---,0.00,VWS V14.00,2013-03-11 12:55:00,
2013-03-11 05:58:00,24.8,0.4,30.21,SW,225,0.0,0.0,34,0.00,,---,0.00,VWS V14.00,2013-03-11 12:58:00,
2013-03-11 05:59:00,24.6,-0.4,30.21,SW,225,0.0,0.0,33,0.00,,---,0.00,VWS V14.00,2013-03-11 12:59:00,
2013-03-11 06:00:00,24.6,-0.4,30.21,SW,225,0.0,0.0,33,0.00,,---,0.00,VWS V14.00,2013-03-11 13:00:00,
2013-03-11 06:03:00,24.6,-0.4,30.21,SW,225,0.0,0.0,33,0.00,,---,0.00,VWS V14.00,2013-03-11 13:03:00,
2013-03-11 06:04:00,24.4,-0.5,30.21,SW,225,0.0,0.0,33,0.00,,---,0.00,VWS V14.00,2013-03-11 13:04:00,
2013-03-11 06:05:00,24.4,-0.5,30.21,SW,225,0.0,0.0,33,0.00,,---,0.00,VWS V14.00,2013-03-11 13:05:00,
2013-03-11 06:08:00,24.4,-0.5,30.21,SW,225,0.0,0.0,33,0.00,,---,0.00,VWS V14.00,2013-03-11 13:08:00,
2013-03-11 06:09:00,24.4,-0.5,30.21,SW,225,0.0,0.0,33,0.00,,---,0.00,VWS V14.00,2013-03-11 13:09:00,
2013-03-11 06:10:00,24.4,-0.5,30.21,SW,225,0.0,0.0,33,0.00,,---,0.00,VWS V14.00,2013-03-11 13:10:00,
2013-03-11 06:13:00,24.4,-0.5,30.21,SW,225,0.0,0.0,33,0.00,,---,0.00,VWS V14.00,2013-03-11 13:13:00,
2013-03-11 06:14:00,24.4,-0.5,30.21,SW,225,0.0,0.0,33,0.00,,---,0.00,VWS V14.00,2013-03-11 13:14:00,
2013-03-11 06:15:00,24.1,-0.2,30.21,SW,225,0.0,0.0,34,0.00,,---,0.00,VWS V14.00,2013-03-11 13:15:00,
2013-03-11 06:19:00,23.7,0.1,30.21,SW,225,0.0,0.0,35,0.00,,---,0.00,VWS V14.00,2013-03-11 13:19:00,
2013-03-11 06:20:00,23.5,-0.1,30.21,SW,225,0.0,0.0,35,0.00,,---,0.00,VWS V14.00,2013-03-11 13:20:00,
2013-03-11 06:24:00,23.4,-0.2,30.21,SW,225,0.0,0.0,35,0.00,,---,0.00,VWS V14.00,2013-03-11 13:24:00,
2013-03-11 06:25:00,23.4,-0.2,30.21,SW,225,0.0,0.0,35,0.00,,---,0.00,VWS V14.00,2013-03-11 13:25:00,
2013-03-11 06:29:00,23.2,-0.4,30.18,SW,225,0.0,0.0,35,0.00,,---,0.00,VWS V14.00,2013-03-11 13:29:00,
2013-03-11 06:30:00,23.2,-0.4,30.18,SW,225,0.0,0.0,35,0.00,,---,0.00,VWS V14.00,2013-03-11 13:30:00,
2013-03-11 06:34:00,22.8,-0.7,30.18,SW,225,0.0,0.0,35,0.00,,---,0.00,VWS V14.00,2013-03-11 13:34:00,
2013-03-11 06:35:00,22.6,-0.3,30.18,SW,225,0.0,0.0,36,0.00,,---,0.00,VWS V14.00,2013-03-11 13:35:00,
2013-03-11 06:39:00,22.8,-0.1,30.18,SW,225,0.0,1.3,36,0.00,,---,0.00,VWS V14.00,2013-03-11 13:39:00,
2013-03-11 06:40:00,23.0,0.0,30.18,SW,225,0.0,1.3,36,0.00,,---,0.00,VWS V14.00,2013-03-11 13:40:00,
2013-03-11 06:41:00,23.0,0.0,30.18,SW,225,0.0,1.3,36,0.00,,---,0.00,VWS V14.00,2013-03-11 13:41:00,
2013-03-11 06:45:00,23.5,3.8,30.21,SW,225,0.0,0.0,42,0.00,,---,0.00,VWS V14.00,2013-03-11 13:45:00,
2013-03-11 06:46:00,23.5,3.8,30.21,SW,225,0.0,0.0,42,0.00,,---,0.00,VWS V14.00,2013-03-11 13:46:00,
2013-03-11 06:50:00,23.9,3.6,30.21,SW,225,0.0,0.0,41,0.00,,---,0.00,VWS V14.00,2013-03-11 13:50:00,
2013-03-11 06:51:00,23.7,2.9,30.21,SW,225,0.0,0.0,40,0.00,,---,0.00,VWS V14.00,2013-03-11 13:51:00,
2013-03-11 06:52:00,23.7,2.9,30.21,SW,225,0.0,0.0,40,0.00,,---,0.00,VWS V14.00,2013-03-11 13:52:00,
2013-03-11 06:55:00,23.4,2.1,30.21,SW,225,0.0,0.0,39,0.00,,---,0.00,VWS V14.00,2013-03-11 13:55:00,
2013-03-11 06:56:00,23.4,2.1,30.21,SW,225,0.0,0.0,39,0.00,,---,0.00,VWS V14.00,2013-03-11 13:56:00,
2013-03-11 06:57:00,23.4,2.1,30.21,SW,225,0.0,0.0,39,0.00,,---,0.00,VWS V14.00,2013-03-11 13:57:00,
2013-03-11 07:00:00,23.4,3.7,30.21,NNW,338,0.0,0.0,42,0.00,,---,0.00,VWS V14.00,2013-03-11 14:00:00,
2013-03-11 07:02:00,23.4,3.7,30.21,NNW,338,0.0,0.0,42,0.00,,---,0.00,VWS V14.00,2013-03-11 14:02:00,
2013-03-11 07:05:00,23.2,1.9,30.21,NE,45,2.7,2.7,39,0.00,,---,0.00,VWS V14.00,2013-03-11 14:05:00,
2013-03-11 07:07:00,23.2,1.9,30.21,NE,45,0.0,0.0,39,0.00,,---,0.00,VWS V14.00,2013-03-11 14:07:00,
2013-03-11 07:10:00,23.2,1.9,30.21,ENE,68,0.0,0.0,39,0.00,,---,0.00,VWS V14.00,2013-03-11 14:10:00,
2013-03-11 07:12:00,23.2,1.9,30.21,ENE,68,0.0,0.0,39,0.00,,---,0.00,VWS V14.00,2013-03-11 14:12:00,
2013-03-11 07:15:00,23.2,1.9,30.21,ESE,112,0.0,0.0,39,0.00,,---,0.00,VWS V14.00,2013-03-11 14:15:00,
2013-03-11 07:16:00,23.2,1.9,30.21,ESE,112,0.0,0.0,39,0.00,,---,0.00,VWS V14.00,2013-03-11 14:16:00,
2013-03-11 07:17:00,23.0,1.2,30.24,ESE,112,0.0,0.0,38,0.00,,---,0.00,VWS V14.00,2013-03-11 14:17:00,
2013-03-11 07:20:00,22.8,1.0,30.24,SE,135,0.0,0.0,38,0.00,,---,0.00,VWS V14.00,2013-03-11 14:20:00,
2013-03-11 07:21:00,22.8,1.0,30.24,SE,135,0.0,0.0,38,0.00,,---,0.00,VWS V14.00,2013-03-11 14:21:00,
2013-03-11 07:22:00,22.8,1.0,30.24,SE,135,0.0,0.0,38,0.00,,---,0.00,VWS V14.00,2013-03-11 14:22:00,
2013-03-11 07:23:00,23.2,1.9,30.24,SE,135,0.0,0.0,39,0.00,,---,0.00,VWS V14.00,2013-03-11 14:23:00,
2013-03-11 07:25:00,23.2,1.9,30.24,SE,135,0.0,0.0,39,0.00,,---,0.00,VWS V14.00,2013-03-11 14:25:00,
2013-03-11 07:26:00,23.2,1.9,30.24,SE,135,0.0,0.0,39,0.00,,---,0.00,VWS V14.00,2013-03-11 14:26:00,
2013-03-11 07:28:00,23.2,1.9,30.24,SE,135,0.0,0.0,39,0.00,,---,0.00,VWS V14.00,2013-03-11 14:28:00,
2013-03-11 07:30:00,38.5,9.8,30.24,SSW,202,3.4,3.4,30,0.00,,---,0.00,VWS V14.00,2013-03-11 14:30:00,
2013-03-11 07:31:00,23.4,3.7,30.24,SE,135,0.0,0.0,42,0.00,,---,0.00,VWS V14.00,2013-03-11 14:31:00,
2013-03-11 07:32:00,23.5,3.8,30.24,SE,135,0.0,0.0,42,0.00,,---,0.00,VWS V14.00,2013-03-11 14:32:00,
2013-03-11 07:33:00,23.5,3.8,30.24,SE,135,0.0,0.0,42,0.00,,---,0.00,VWS V14.00,2013-03-11 14:33:00,
2013-03-11 07:34:00,23.5,3.8,30.24,SE,135,0.0,0.0,42,0.00,,---,0.00,VWS V14.00,2013-03-11 14:34:00,
2013-03-11 07:35:00,38.7,9.2,30.24,SW,225,6.3,6.3,29,0.00,,---,0.00,VWS V14.00,2013-03-11 14:35:00,
2013-03-11 07:36:00,23.5,3.8,30.24,SE,135,0.0,1.1,42,0.00,,---,0.00,VWS V14.00,2013-03-11 14:36:00,
2013-03-11 07:37:00,23.5,3.8,30.24,SE,135,0.0,0.0,42,0.00,,---,0.00,VWS V14.00,2013-03-11 14:37:00,
2013-03-11 07:38:00,23.5,3.8,30.24,NNW,338,0.0,0.0,42,0.00,,---,0.00,VWS V14.00,2013-03-11 14:38:00,
2013-03-11 07:39:00,23.5,3.8,30.24,North,0,0.0,0.0,42,0.00,,---,0.00,VWS V14.00,2013-03-11 14:39:00,
2013-03-11 07:40:00,39.4,9.8,30.24,SSW,202,4.7,6.3,29,0.00,,---,0.00,VWS V14.00,2013-03-11 14:40:00,
2013-03-11 07:42:00,26.1,5.1,30.24,North,0,0.0,0.0,40,0.00,,---,0.00,VWS V14.00,2013-03-11 14:42:00,
2013-03-11 07:43:00,26.1,5.1,30.24,North,0,0.0,0.0,40,0.00,,---,0.00,VWS V14.00,2013-03-11 14:43:00,
2013-03-11 07:44:00,26.1,5.1,30.24,North,0,0.0,0.0,40,0.00,,---,0.00,VWS V14.00,2013-03-11 14:44:00,
2013-03-11 07:45:00,41.0,10.4,30.24,SW,225,5.4,5.8,28,0.00,,---,0.00,VWS V14.00,2013-03-11 14:45:00,
2013-03-11 07:47:00,28.6,6.2,30.24,North,0,0.0,0.0,38,0.00,,---,0.00,VWS V14.00,2013-03-11 14:47:00,
2013-03-11 07:48:00,28.6,6.2,30.24,North,0,0.0,0.0,38,0.00,,---,0.00,VWS V14.00,2013-03-11 14:48:00,
2013-03-11 07:49:00,28.8,6.4,30.24,North,0,0.0,0.0,38,0.00,,---,0.00,VWS V14.00,2013-03-11 14:49:00,
2013-03-11 07:50:00,42.1,9.7,30.24,SW,225,4.0,6.3,26,0.00,,---,0.00,VWS V14.00,2013-03-11 14:50:00,
2013-03-11 07:52:00,29.5,7.0,30.24,North,0,0.0,0.0,38,0.00,,---,0.00,VWS V14.00,2013-03-11 14:52:00,
2013-03-11 07:53:00,29.5,7.0,30.24,North,0,0.0,0.0,38,0.00,,---,0.00,VWS V14.00,2013-03-11 14:53:00,
2013-03-11 07:54:00,29.5,7.0,30.24,North,0,0.0,0.0,38,0.00,,---,0.00,VWS V14.00,2013-03-11 14:54:00,
2013-03-11 07:55:00,43.3,9.9,30.24,SSW,202,4.0,6.3,25,0.00,,---,0.00,VWS V14.00,2013-03-11 14:55:00,
2013-03-11 07:57:00,30.7,7.6,30.24,North,0,0.0,0.0,37,0.00,,---,0.00,VWS V14.00,2013-03-11 14:57:00,
2013-03-11 07:59:00,30.7,7.6,30.24,North,0,0.0,0.0,37,0.00,,---,0.00,VWS V14.00,2013-03-11 14:59:00,
2013-03-11 08:00:00,30.7,7.6,30.24,North,0,0.0,0.0,37,0.00,,---,0.00,VWS V14.00,2013-03-11 15:00:00,
2013-03-11 08:02:00,32.2,8.2,30.24,North,0,0.0,0.0,36,0.00,,---,0.00,VWS V14.00,2013-03-11 15:02:00,
2013-03-11 08:04:00,32.7,8.7,30.24,ESE,112,0.0,0.0,36,0.00,,---,0.00,VWS V14.00,2013-03-11 15:04:00,
2013-03-11 08:05:00,32.7,8.7,30.24,ESE,112,0.0,0.0,36,0.00,,---,0.00,VWS V14.00,2013-03-11 15:05:00,
2013-03-11 08:08:00,33.3,9.2,30.24,ESE,112,0.0,0.0,36,0.00,,---,0.00,VWS V14.00,2013-03-11 15:08:00,
2013-03-11 08:09:00,33.3,9.2,30.24,ESE,112,0.0,0.0,36,0.00,,---,0.00,VWS V14.00,2013-03-11 15:09:00,
2013-03-11 08:10:00,33.3,9.2,30.24,ESE,112,0.0,0.0,36,0.00,,---,0.00,VWS V14.00,2013-03-11 15:10:00,
2013-03-11 08:13:00,34.5,9.7,30.24,SSE,158,0.0,0.0,35,0.00,,---,0.00,VWS V14.00,2013-03-11 15:13:00,
2013-03-11 08:14:00,34.9,9.4,30.24,SSE,158,0.0,0.0,34,0.00,,---,0.00,VWS V14.00,2013-03-11 15:14:00,
2013-03-11 08:15:00,34.9,9.4,30.24,SSE,158,0.0,0.0,34,0.00,,---,0.00,VWS V14.00,2013-03-11 15:15:00,
2013-03-11 08:18:00,35.6,9.4,30.24,South,180,0.0,0.0,33,0.00,,---,0.00,VWS V14.00,2013-03-11 15:18:00,
2013-03-11 08:19:00,35.6,9.4,30.24,South,180,0.0,0.0,33,0.00,,---,0.00,VWS V14.00,2013-03-11 15:19:00,
2013-03-11 08:20:00,35.6,8.7,30.24,South,180,1.3,1.3,32,0.00,,---,0.00,VWS V14.00,2013-03-11 15:20:00,
2013-03-11 08:23:00,36.7,9.6,30.24,South,180,0.9,2.7,32,0.00,,---,0.00,VWS V14.00,2013-03-11 15:23:00,
2013-03-11 08:24:00,36.9,9.1,30.24,SSW,202,2.5,2.9,31,0.00,,---,0.00,VWS V14.00,2013-03-11 15:24:00,
2013-03-11 08:25:00,36.9,9.1,30.24,SSW,202,2.5,2.9,31,0.00,,---,0.00,VWS V14.00,2013-03-11 15:25:00,
2013-03-11 08:29:00,37.4,9.5,30.24,SSW,202,2.5,2.5,31,0.00,,---,0.00,VWS V14.00,2013-03-11 15:29:00,
2013-03-11 08:30:00,37.4,9.5,30.24,SSW,202,2.5,2.5,31,0.00,,---,0.00,VWS V14.00,2013-03-11 15:30:00,
2013-03-11 08:34:00,38.7,9.2,30.24,SW,225,6.0,6.0,29,0.00,,---,0.00,VWS V14.00,2013-03-11 15:34:00,
2013-03-11 08:35:00,38.7,9.2,30.24,SSW,202,4.7,6.0,29,0.00,,---,0.00,VWS V14.00,2013-03-11 15:35:00,
2013-03-11 08:39:00,39.2,9.6,30.24,SW,225,4.9,6.3,29,0.00,,---,0.00,VWS V14.00,2013-03-11 15:39:00,
2013-03-11 08:40:00,39.4,9.8,30.24,SSW,202,5.8,6.3,29,0.00,,---,0.00,VWS V14.00,2013-03-11 15:40:00,
2013-03-11 08:44:00,40.3,9.8,30.24,SW,225,5.6,5.8,28,0.00,,---,0.00,VWS V14.00,2013-03-11 15:44:00,
2013-03-11 08:45:00,40.3,9.8,30.24,SW,225,5.6,5.8,28,0.00,,---,0.00,VWS V14.00,2013-03-11 15:45:00,
2013-03-11 08:46:00,40.3,9.8,30.24,SW,225,5.6,5.8,28,0.00,,---,0.00,VWS V14.00,2013-03-11 15:46:00,
2013-03-11 08:49:00,41.7,9.4,30.24,SSW,202,5.8,6.3,26,0.00,,---,0.00,VWS V14.00,2013-03-11 15:49:00,
2013-03-11 08:50:00,41.7,9.4,30.24,SSW,202,5.8,6.3,26,0.00,,---,0.00,VWS V14.00,2013-03-11 15:50:00,
2013-03-11 08:51:00,42.1,9.7,30.24,SW,225,4.0,6.3,26,0.00,,---,0.00,VWS V14.00,2013-03-11 15:51:00,
2013-03-11 08:54:00,42.6,10.1,30.24,SW,225,5.4,6.3,26,0.00,,---,0.00,VWS V14.00,2013-03-11 15:54:00,
2013-03-11 08:55:00,42.6,10.1,30.24,SW,225,5.4,6.3,26,0.00,,---,0.00,VWS V14.00,2013-03-11 15:55:00,
2013-03-11 08:56:00,43.3,9.9,30.24,SSW,202,4.0,6.3,25,0.00,,---,0.00,VWS V14.00,2013-03-11 15:56:00,
2013-03-11 08:59:00,43.7,8.3,30.24,SW,225,4.9,4.9,23,0.00,,---,0.00,VWS V14.00,2013-03-11 15:59:00,
2013-03-11 09:00:00,44.1,8.6,30.24,SSW,202,2.9,4.9,23,0.00,,---,0.00,VWS V14.00,2013-03-11 16:00:00,
2013-03-11 09:01:00,44.4,8.9,30.24,SW,225,4.0,4.0,23,0.00,,---,0.00,VWS V14.00,2013-03-11 16:01:00,
2013-03-11 09:02:00,44.4,8.9,30.24,SW,225,4.3,4.3,23,0.00,,---,0.00,VWS V14.00,2013-03-11 16:02:00,
2013-03-11 09:04:00,44.6,8.1,30.24,South,180,4.3,6.5,22,0.00,,---,0.00,VWS V14.00,2013-03-11 16:04:00,
2013-03-11 09:05:00,44.6,8.1,30.24,South,180,5.8,6.5,22,0.00,,---,0.00,VWS V14.00,2013-03-11 16:05:00,
2013-03-11 09:06:00,44.8,8.3,30.24,SW,225,4.3,5.4,22,0.00,,---,0.00,VWS V14.00,2013-03-11 16:06:00,
2013-03-11 09:07:00,44.8,6.2,30.24,SW,225,3.8,5.4,20,0.00,,---,0.00,VWS V14.00,2013-03-11 16:07:00,
2013-03-11 09:10:00,44.8,6.2,30.24,SW,225,4.9,6.5,20,0.00,,---,0.00,VWS V14.00,2013-03-11 16:10:00,
2013-03-11 09:12:00,44.6,6.0,30.24,SSW,202,3.8,5.8,20,0.00,,---,0.00,VWS V14.00,2013-03-11 16:12:00,
2013-03-11 09:15:00,44.8,6.2,30.24,South,180,3.4,5.8,20,0.00,,---,0.00,VWS V14.00,2013-03-11 16:15:00,
2013-03-11 09:17:00,44.8,6.2,30.24,South,180,4.3,5.6,20,0.00,,---,0.00,VWS V14.00,2013-03-11 16:17:00,
2013-03-11 09:20:00,45.9,7.1,30.24,SSW,202,3.1,5.6,20,0.00,,---,0.00,VWS V14.00,2013-03-11 16:20:00,
2013-03-11 09:22:00,46.8,6.7,30.24,SSW,202,2.7,4.7,19,0.00,,---,0.00,VWS V14.00,2013-03-11 16:22:00,
2013-03-11 09:23:00,47.1,7.0,30.24,SW,225,3.8,4.7,19,0.00,,---,0.00,VWS V14.00,2013-03-11 16:23:00,
2013-03-11 09:25:00,48.2,7.9,30.24,SW,225,3.4,4.7,19,0.00,,---,0.00,VWS V14.00,2013-03-11 16:25:00,
2013-03-11 09:26:00,48.2,7.9,30.24,SW,225,3.1,4.7,19,0.00,,---,0.00,VWS V14.00,2013-03-11 16:26:00,
2013-03-11 09:27:00,48.2,7.9,30.24,South,180,3.8,3.8,19,0.00,,---,0.00,VWS V14.00,2013-03-11 16:27:00,
2013-03-11 09:28:00,48.9,8.5,30.24,South,180,3.1,4.3,19,0.00,,---,0.00,VWS V14.00,2013-03-11 16:28:00,
2013-03-11 09:30:00,49.5,8.9,30.24,SSW,202,4.0,4.7,19,0.00,,---,0.00,VWS V14.00,2013-03-11 16:30:00,
2013-03-11 09:31:00,49.5,8.9,30.24,SSW,202,4.0,4.7,19,0.00,,---,0.00,VWS V14.00,2013-03-11 16:31:00,
2013-03-11 09:32:00,50.0,9.4,30.24,SW,225,3.6,3.6,19,0.00,,---,0.00,VWS V14.00,2013-03-11 16:32:00,
2013-03-11 09:33:00,50.0,9.4,30.24,WSW,248,2.9,3.6,19,0.00,,---,0.00,VWS V14.00,2013-03-11 16:33:00,
2013-03-11 09:35:00,50.5,9.8,30.24,SW,225,4.3,4.9,19,0.00,,---,0.00,VWS V14.00,2013-03-11 16:35:00,
2013-03-11 09:36:00,51.3,10.4,30.24,SW,225,3.1,3.8,19,0.00,,---,0.00,VWS V14.00,2013-03-11 16:36:00,
2013-03-11 09:37:00,51.3,10.4,30.24,South,180,2.9,3.8,19,0.00,,---,0.00,VWS V14.00,2013-03-11 16:37:00,
2013-03-11 09:38:00,51.3,10.4,30.24,South,180,2.9,3.8,19,0.00,,---,0.00,VWS V14.00,2013-03-11 16:38:00,
2013-03-11 09:40:00,61.3,14.8,30.21,SSW,202,2.9,6.0,16,0.00,,---,0.00,VWS V14.00,2013-03-11 16:40:00,
2013-03-11 09:41:00,52.2,10.0,30.24,SW,225,3.6,3.8,18,0.00,,---,0.00,VWS V14.00,2013-03-11 16:41:00,
2013-03-11 09:42:00,52.3,10.1,30.24,SSW,202,3.4,3.6,18,0.00,,---,0.00,VWS V14.00,2013-03-11 16:42:00,
2013-03-11 09:43:00,52.7,10.4,30.24,SW,225,2.7,3.6,18,0.00,,---,0.00,VWS V14.00,2013-03-11 16:43:00,
2013-03-11 09:45:00,60.8,14.4,30.21,SW,225,4.0,6.3,16,0.00,,---,0.00,VWS V14.00,2013-03-11 16:45:00,
2013-03-11 09:46:00,53.2,10.9,30.24,SW,225,0.0,4.3,18,0.00,,---,0.00,VWS V14.00,2013-03-11 16:46:00,
2013-03-11 09:47:00,53.6,11.1,30.24,SW,225,2.9,2.9,18,0.00,,---,0.00,VWS V14.00,2013-03-11 16:47:00,
2013-03-11 09:48:00,54.1,11.6,30.24,SW,225,2.0,2.9,18,0.00,,---,0.00,VWS V14.00,2013-03-11 16:48:00,
2013-03-11 09:50:00,62.2,15.5,30.21,SW,225,3.4,4.7,16,0.00,,---,0.00,VWS V14.00,2013-03-11 16:50:00,
2013-03-11 09:52:00,54.9,12.2,30.24,West,270,0.0,2.9,18,0.00,,---,0.00,VWS V14.00,2013-03-11 16:52:00,
2013-03-11 09:53:00,54.9,12.2,30.24,West,270,0.0,2.9,18,0.00,,---,0.00,VWS V14.00,2013-03-11 16:53:00,
2013-03-11 09:54:00,55.8,11.6,30.24,WSW,248,0.0,2.9,17,0.00,,---,0.00,VWS V14.00,2013-03-11 16:54:00,
2013-03-11 09:55:00,62.6,15.8,30.21,SSW,202,3.6,3.6,16,0.00,,---,0.00,VWS V14.00,2013-03-11 16:55:00,
2013-03-11 09:57:00,56.8,12.5,30.21,SW,225,0.0,0.0,17,0.00,,---,0.00,VWS V14.00,2013-03-11 16:57:00,
2013-03-11 09:58:00,56.8,12.5,30.21,SW,225,0.0,0.0,17,0.00,,---,0.00,VWS V14.00,2013-03-11 16:58:00,
2013-03-11 09:59:00,56.8,12.5,30.21,SW,225,0.0,0.0,17,0.00,,---,0.00,VWS V14.00,2013-03-11 16:59:00,
2013-03-11 10:00:00,66.2,17.2,30.21,North,0,0.0,3.6,15,0.00,,---,0.00,VWS V14.00,2013-03-11 17:00:00,
2013-03-11 10:02:00,58.3,13.7,30.21,SW,225,3.8,3.8,17,0.00,,---,0.00,VWS V14.00,2013-03-11 17:02:00,
2013-03-11 10:03:00,58.1,13.5,30.21,WSW,248,1.3,3.8,17,0.00,,---,0.00,VWS V14.00,2013-03-11 17:03:00,
2013-03-11 10:04:00,57.9,13.4,30.21,SW,225,1.3,3.8,17,0.00,,---,0.00,VWS V14.00,2013-03-11 17:04:00,
2013-03-11 10:05:00,66.2,17.2,30.21,SSE,158,4.0,4.0,15,0.00,,---,0.00,VWS V14.00,2013-03-11 17:05:00,
2013-03-11 10:07:00,58.5,13.8,30.21,SW,225,4.3,4.9,17,0.00,,---,0.00,VWS V14.00,2013-03-11 17:07:00,
2013-03-11 10:08:00,58.5,13.8,30.21,WNW,292,3.1,4.9,17,0.00,,---,0.00,VWS V14.00,2013-03-11 17:08:00,
2013-03-11 10:09:00,58.6,14.0,30.21,WNW,292,1.1,4.9,17,0.00,,---,0.00,VWS V14.00,2013-03-11 17:09:00,
2013-03-11 10:10:00,66.7,17.6,30.21,WSW,248,0.0,4.0,15,0.00,,---,0.00,VWS V14.00,2013-03-11 17:10:00,
2013-03-11 10:13:00,59.0,14.3,30.24,SW,225,2.0,4.7,17,0.00,,---,0.00,VWS V14.00,2013-03-11 17:13:00,
2013-03-11 10:14:00,59.0,14.3,30.24,SW,225,2.0,4.7,17,0.00,,---,0.00,VWS V14.00,2013-03-11 17:14:00,
2013-03-11 10:15:00,68.5,19.1,30.18,SE,135,3.8,3.8,15,0.00,,---,0.00,VWS V14.00,2013-03-11 17:15:00,
2013-03-11 10:18:00,59.4,14.6,30.24,WNW,292,2.7,4.7,17,0.00,,---,0.00,VWS V14.00,2013-03-11 17:18:00,
2013-03-11 10:19:00,59.4,14.6,30.24,WNW,292,2.7,4.7,17,0.00,,---,0.00,VWS V14.00,2013-03-11 17:19:00,
2013-03-11 10:20:00,67.3,18.1,30.18,East,90,2.0,3.8,15,0.00,,---,0.00,VWS V14.00,2013-03-11 17:20:00,
2013-03-11 10:23:00,61.3,14.8,30.24,SW,225,1.3,3.1,16,0.00,,---,0.00,VWS V14.00,2013-03-11 17:23:00,
2013-03-11 10:24:00,61.3,14.8,30.24,SW,225,1.3,3.1,16,0.00,,---,0.00,VWS V14.00,2013-03-11 17:24:00,
2013-03-11 10:25:00,61.0,14.5,30.24,SW,225,2.9,3.4,16,0.00,,---,0.00,VWS V14.00,2013-03-11 17:25:00,
2013-03-11 10:28:00,61.7,15.1,30.24,SW,225,0.0,0.0,16,0.00,,---,0.00,VWS V14.00,2013-03-11 17:28:00,
2013-03-11 10:29:00,61.3,14.8,30.21,West,270,2.0,4.3,16,0.00,,---,0.00,VWS V14.00,2013-03-11 17:29:00,
2013-03-11 10:30:00,61.7,15.1,30.21,SW,225,2.7,4.3,16,0.00,,---,0.00,VWS V14.00,2013-03-11 17:30:00,
2013-03-11 10:33:00,61.3,14.8,30.21,SSW,202,3.6,5.4,16,0.00,,---,0.00,VWS V14.00,2013-03-11 17:33:00,
2013-03-11 10:34:00,61.5,14.9,30.21,West,270,4.9,5.4,16,0.00,,---,0.00,VWS V14.00,2013-03-11 17:34:00,
2013-03-11 10:35:00,61.5,14.9,30.21,SW,225,5.6,5.6,16,0.00,,---,0.00,VWS V14.00,2013-03-11 17:35:00,
2013-03-11 10:38:00,61.3,14.8,30.21,SW,225,3.6,5.8,16,0.00,,---,0.00,VWS V14.00,2013-03-11 17:38:00,
2013-03-11 10:39:00,61.5,14.9,30.21,SSW,202,6.0,6.0,16,0.00,,---,0.00,VWS V14.00,2013-03-11 17:39:00,
2013-03-11 10:40:00,61.3,14.8,30.21,SSW,202,4.0,6.0,16,0.00,,---,0.00,VWS V14.00,2013-03-11 17:40:00,
2013-03-11 10:43:00,60.8,14.4,30.21,WSW,248,2.2,6.3,16,0.00,,---,0.00,VWS V14.00,2013-03-11 17:43:00,
2013-03-11 10:44:00,60.8,14.4,30.21,WSW,248,0.0,6.3,16,0.00,,---,0.00,VWS V14.00,2013-03-11 17:44:00,
2013-03-11 10:45:00,60.8,14.4,30.21,SW,225,3.8,6.3,16,0.00,,---,0.00,VWS V14.00,2013-03-11 17:45:00,
2013-03-11 10:48:00,61.5,14.9,30.21,SW,225,2.2,4.7,16,0.00,,---,0.00,VWS V14.00,2013-03-11 17:48:00,
2013-03-11 10:49:00,62.2,15.5,30.21,SW,225,4.3,4.7,16,0.00,,---,0.00,VWS V14.00,2013-03-11 17:49:00,
2013-03-11 10:50:00,69.3,19.7,30.18,South,180,3.1,3.4,15,0.00,,---,0.00,VWS V14.00,2013-03-11 17:50:00,
2013-03-11 10:51:00,62.2,15.5,30.21,SW,225,3.4,4.7,16,0.00,,---,0.00,VWS V14.00,2013-03-11 17:51:00,
2013-03-11 10:53:00,62.8,15.9,30.21,SSW,202,2.5,3.4,16,0.00,,---,0.00,VWS V14.00,2013-03-11 17:53:00,
2013-03-11 10:54:00,62.6,15.8,30.21,SW,225,3.4,3.4,16,0.00,,---,0.00,VWS V14.00,2013-03-11 17:54:00,
2013-03-11 10:55:00,70.2,18.8,30.18,South,180,0.0,5.8,14,0.00,,---,0.00,VWS V14.00,2013-03-11 17:55:00,
2013-03-11 10:56:00,62.6,15.8,30.21,SSW,202,0.0,3.6,16,0.00,,---,0.00,VWS V14.00,2013-03-11 17:56:00,
2013-03-11 10:59:00,64.6,15.9,30.21,North,0,0.9,3.6,15,0.00,,---,0.00,VWS V14.00,2013-03-11 17:59:00,
2013-03-11 11:00:00,71.2,19.6,30.18,SSW,202,3.4,3.4,14,0.00,,---,0.00,VWS V14.00,2013-03-11 18:00:00,
2013-03-11 11:01:00,66.4,17.4,30.21,NNE,22,0.0,1.3,15,0.00,,---,0.00,VWS V14.00,2013-03-11 18:01:00,
2013-03-11 11:04:00,66.0,17.1,30.21,SSE,158,3.1,3.1,15,0.00,,---,0.00,VWS V14.00,2013-03-11 18:04:00,
2013-03-11 11:05:00,66.2,17.2,30.21,SE,135,0.0,3.1,15,0.00,,---,0.00,VWS V14.00,2013-03-11 18:05:00,
2013-03-11 11:07:00,65.7,16.8,30.21,SSW,202,3.6,4.0,15,0.00,,---,0.00,VWS V14.00,2013-03-11 18:07:00,
2013-03-11 11:09:00,65.3,16.5,30.21,WSW,248,1.1,4.0,15,0.00,,---,0.00,VWS V14.00,2013-03-11 18:09:00,
2013-03-11 11:10:00,66.0,17.1,30.21,WSW,248,0.0,4.0,15,0.00,,---,0.00,VWS V14.00,2013-03-11 18:10:00,
2013-03-11 11:12:00,67.5,18.2,30.18,ESE,112,0.0,0.0,15,0.00,,---,0.00,VWS V14.00,2013-03-11 18:12:00,
2013-03-11 11:14:00,68.5,19.1,30.18,SE,135,0.0,2.7,15,0.00,,---,0.00,VWS V14.00,2013-03-11 18:14:00,
2013-03-11 11:15:00,68.5,19.1,30.18,SE,135,3.6,3.6,15,0.00,,---,0.00,VWS V14.00,2013-03-11 18:15:00,
2013-03-11 11:17:00,68.0,18.7,30.18,SE,135,2.5,3.8,15,0.00,,---,0.00,VWS V14.00,2013-03-11 18:17:00,
2013-03-11 11:19:00,67.5,18.2,30.18,SE,135,3.6,3.8,15,0.00,,---,0.00,VWS V14.00,2013-03-11 18:19:00,
2013-03-11 11:20:00,67.5,18.2,30.18,SE,135,3.6,3.8,15,0.00,,---,0.00,VWS V14.00,2013-03-11 18:20:00,
2013-03-11 11:22:00,68.0,18.7,30.18,SE,135,0.0,4.0,15,0.00,,---,0.00,VWS V14.00,2013-03-11 18:22:00,
2013-03-11 11:25:00,67.5,18.2,30.18,SW,225,3.8,4.3,15,0.00,,---,0.00,VWS V14.00,2013-03-11 18:25:00,
2013-03-11 11:27:00,67.3,18.1,30.18,SE,135,2.5,4.3,15,0.00,,---,0.00,VWS V14.00,2013-03-11 18:27:00,
2013-03-11 11:30:00,67.3,18.1,30.18,SE,135,2.0,4.3,15,0.00,,---,0.00,VWS V14.00,2013-03-11 18:30:00,
2013-03-11 11:31:00,67.5,18.2,30.18,SE,135,0.9,4.3,15,0.00,,---,0.00,VWS V14.00,2013-03-11 18:31:00,
2013-03-11 11:33:00,67.5,18.2,30.18,SE,135,0.0,0.0,15,0.00,,---,0.00,VWS V14.00,2013-03-11 18:33:00,
2013-03-11 11:35:00,69.4,19.8,30.18,ESE,112,0.9,1.6,15,0.00,,---,0.00,VWS V14.00,2013-03-11 18:35:00,
2013-03-11 11:36:00,69.6,20.0,30.18,SSE,158,4.9,4.9,15,0.00,,---,0.00,VWS V14.00,2013-03-11 18:36:00,
2013-03-11 11:38:00,68.9,19.4,30.18,SW,225,3.8,5.4,15,0.00,,---,0.00,VWS V14.00,2013-03-11 18:38:00,
2013-03-11 11:40:00,68.7,19.2,30.18,SW,225,3.1,5.4,15,0.00,,---,0.00,VWS V14.00,2013-03-11 18:40:00,
2013-03-11 11:41:00,68.7,19.2,30.18,SW,225,3.1,5.4,15,0.00,,---,0.00,VWS V14.00,2013-03-11 18:41:00,
2013-03-11 11:43:00,68.7,19.2,30.18,ESE,112,2.5,2.5,15,0.00,,---,0.00,VWS V14.00,2013-03-11 18:43:00,
2013-03-11 11:45:00,69.4,19.8,30.18,SE,135,3.6,4.7,15,0.00,,---,0.00,VWS V14.00,2013-03-11 18:45:00,
2013-03-11 11:46:00,69.4,19.8,30.18,North,0,2.7,2.9,15,0.00,,---,0.00,VWS V14.00,2013-03-11 18:46:00,
2013-03-11 11:48:00,69.4,19.8,30.18,North,0,2.7,2.9,15,0.00,,---,0.00,VWS V14.00,2013-03-11 18:48:00,
2013-03-11 11:50:00,69.4,19.8,30.18,SSW,202,3.4,3.4,15,0.00,,---,0.00,VWS V14.00,2013-03-11 18:50:00,
2013-03-11 11:51:00,69.3,19.7,30.18,South,180,3.1,3.4,15,0.00,,---,0.00,VWS V14.00,2013-03-11 18:51:00,
2013-03-11 11:53:00,68.7,19.2,30.18,SE,135,3.8,5.8,15,0.00,,---,0.00,VWS V14.00,2013-03-11 18:53:00,
2013-03-11 11:55:00,69.8,18.5,30.18,South,180,0.0,5.8,14,0.00,,---,0.00,VWS V14.00,2013-03-11 18:55:00,
2013-03-11 11:56:00,70.2,18.8,30.18,South,180,0.0,5.8,14,0.00,,---,0.00,VWS V14.00,2013-03-11 18:56:00,
2013-03-11 11:57:00,70.2,18.8,30.18,SSE,158,0.0,0.0,14,0.00,,---,0.00,VWS V14.00,2013-03-11 18:57:00,
2013-03-11 11:58:00,70.3,18.9,30.18,ESE,112,2.0,2.7,14,0.00,,---,0.00,VWS V14.00,2013-03-11 18:58:00,
2013-03-11 12:00:00,73.6,19.8,30.18,NW,315,1.3,4.9,13,0.00,,---,0.00,VWS V14.00,2013-03-11 19:00:00,
2013-03-11 12:01:00,71.2,19.6,30.18,SW,225,3.4,3.4,14,0.00,,---,0.00,VWS V14.00,2013-03-11 19:01:00,
2013-03-11 12:02:00,70.9,19.4,30.18,SW,225,3.4,3.4,14,0.00,,---,0.00,VWS V14.00,2013-03-11 19:02:00,
2013-03-11 12:04:00,70.7,19.2,30.18,SW,225,2.5,3.6,14,0.00,,---,0.00,VWS V14.00,2013-03-11 19:04:00,
2013-03-11 12:05:00,74.8,20.7,30.18,SE,135,3.6,3.8,13,0.00,,---,0.00,VWS V14.00,2013-03-11 19:05:00,
2013-03-11 12:07:00,70.5,19.1,30.18,SW,225,0.0,0.0,14,0.00,,---,0.00,VWS V14.00,2013-03-11 19:07:00,
2013-03-11 12:09:00,70.5,19.1,30.18,South,180,1.6,1.6,14,0.00,,---,0.00,VWS V14.00,2013-03-11 19:09:00,
2013-03-11 12:10:00,72.1,20.4,30.18,SE,135,5.8,6.3,14,0.00,,---,0.00,VWS V14.00,2013-03-11 19:10:00,
2013-03-11 12:12:00,70.3,18.9,30.18,ESE,112,3.8,4.3,14,0.00,,---,0.00,VWS V14.00,2013-03-11 19:12:00,
2013-03-11 12:13:00,70.7,19.2,30.18,East,90,2.9,4.3,14,0.00,,---,0.00,VWS V14.00,2013-03-11 19:13:00,
2013-03-11 12:14:00,70.7,19.2,30.18,ESE,112,3.6,4.3,14,0.00,,---,0.00,VWS V14.00,2013-03-11 19:14:00,
2013-03-11 12:15:00,72.0,20.2,30.15,ESE,112,5.4,5.8,14,0.00,,---,0.00,VWS V14.00,2013-03-11 19:15:00,
2013-03-11 12:17:00,71.8,20.1,30.18,SSE,158,0.0,0.0,14,0.00,,---,0.00,VWS V14.00,2013-03-11 19:17:00,
2013-03-11 12:18:00,72.5,20.6,30.18,WNW,292,1.6,1.6,14,0.00,,---,0.00,VWS V14.00,2013-03-11 19:18:00,
2013-03-11 12:19:00,72.5,20.6,30.18,WSW,248,0.0,1.6,14,0.00,,---,0.00,VWS V14.00,2013-03-11 19:19:00,
2013-03-11 12:20:00,72.9,20.9,30.15,SSW,202,2.7,5.4,14,0.00,,---,0.00,VWS V14.00,2013-03-11 19:20:00,
2013-03-11 12:22:00,73.9,20.0,30.18,SW,225,0.0,0.0,13,0.00,,---,0.00,VWS V14.00,2013-03-11 19:22:00,
2013-03-11 12:23:00,73.9,20.0,30.18,SE,135,3.8,3.8,13,0.00,,---,0.00,VWS V14.00,2013-03-11 19:23:00,
2013-03-11 12:24:00,73.0,21.1,30.18,ESE,112,2.5,3.8,14,0.00,,---,0.00,VWS V14.00,2013-03-11 19:24:00,
2013-03-11 12:25:00,75.7,21.5,30.15,ENE,68,0.9,2.7,13,0.00,,---,0.00,VWS V14.00,2013-03-11 19:25:00,
2013-03-11 12:27:00,73.0,21.1,30.18,ENE,68,3.1,4.0,14,0.00,,---,0.00,VWS V14.00,2013-03-11 19:27:00,
2013-03-11 12:28:00,73.0,21.1,30.18,ESE,112,3.8,4.0,14,0.00,,---,0.00,VWS V14.00,2013-03-11 19:28:00,
2013-03-11 12:30:00,73.2,21.2,30.18,SE,135,2.7,4.0,14,0.00,,---,0.00,VWS V14.00,2013-03-11 19:30:00,
2013-03-11 12:32:00,72.9,20.9,30.18,ENE,68,2.7,3.1,14,0.00,,---,0.00,VWS V14.00,2013-03-11 19:32:00,
2013-03-11 12:33:00,72.9,20.9,30.18,North,0,3.6,3.6,14,0.00,,---,0.00,VWS V14.00,2013-03-11 19:33:00,
2013-03-11 12:35:00,73.0,21.1,30.18,East,90,4.9,5.4,14,0.00,,---,0.00,VWS V14.00,2013-03-11 19:35:00,
2013-03-11 12:38:00,72.9,20.9,30.18,East,90,3.6,3.8,14,0.00,,---,0.00,VWS V14.00,2013-03-11 19:38:00,
2013-03-11 12:40:00,73.8,19.9,30.18,SE,135,2.7,3.8,13,0.00,,---,0.00,VWS V14.00,2013-03-11 19:40:00,
2013-03-11 12:43:00,74.3,20.3,30.18,NNW,338,2.7,2.9,13,0.00,,---,0.00,VWS V14.00,2013-03-11 19:43:00,
2013-03-11 12:45:00,73.8,19.9,30.18,NNW,338,2.5,4.0,13,0.00,,---,0.00,VWS V14.00,2013-03-11 19:45:00,
2013-03-11 12:48:00,74.3,20.3,30.18,WNW,292,2.9,4.0,13,0.00,,---,0.00,VWS V14.00,2013-03-11 19:48:00,
2013-03-11 12:50:00,75.6,21.3,30.18,WNW,292,2.9,4.0,13,0.00,,---,0.00,VWS V14.00,2013-03-11 19:50:00,
2013-03-11 12:53:00,75.6,21.3,30.18,NE,45,2.7,3.4,13,0.00,,---,0.00,VWS V14.00,2013-03-11 19:53:00,
2013-03-11 12:54:00,75.6,21.3,30.18,NE,45,2.7,3.4,13,0.00,,---,0.00,VWS V14.00,2013-03-11 19:54:00,
2013-03-11 12:55:00,75.9,21.6,30.18,NNE,22,3.8,3.8,13,0.00,,---,0.00,VWS V14.00,2013-03-11 19:55:00,
2013-03-11 12:59:00,74.7,20.6,30.18,NNW,338,3.4,3.8,13,0.00,,---,0.00,VWS V14.00,2013-03-11 19:59:00,
2013-03-11 13:00:00,73.6,19.8,30.18,NNW,338,2.9,4.9,13,0.00,,---,0.00,VWS V14.00,2013-03-11 20:00:00,
2013-03-11 13:04:00,74.5,20.5,30.18,NNE,22,3.8,3.8,13,0.00,,---,0.00,VWS V14.00,2013-03-11 20:04:00,
2013-03-11 13:05:00,74.8,20.7,30.18,SE,135,3.6,3.8,13,0.00,,---,0.00,VWS V14.00,2013-03-11 20:05:00,
2013-03-11 13:09:00,73.6,19.8,30.18,SE,135,2.7,6.3,13,0.00,,---,0.00,VWS V14.00,2013-03-11 20:09:00,
2013-03-11 13:10:00,72.5,20.6,30.12,North,0,2.5,8.1,14,0.00,,---,0.00,VWS V14.00,2013-03-11 20:10:00,
2013-03-11 13:11:00,72.7,20.8,30.18,ESE,112,2.9,6.3,14,0.00,,---,0.00,VWS V14.00,2013-03-11 20:11:00,
2013-03-11 13:14:00,72.0,20.2,30.15,East,90,5.4,5.8,14,0.00,,---,0.00,VWS V14.00,2013-03-11 20:14:00,
2013-03-11 13:15:00,74.7,20.6,30.12,ENE,68,3.1,6.5,13,0.00,,---,0.00,VWS V14.00,2013-03-11 20:15:00,
2013-03-11 13:16:00,72.0,20.2,30.15,ESE,112,5.4,5.8,14,0.00,,---,0.00,VWS V14.00,2013-03-11 20:16:00,
2013-03-11 13:19:00,72.9,20.9,30.15,SE,135,4.0,5.4,14,0.00,,---,0.00,VWS V14.00,2013-03-11 20:19:00,
2013-03-11 13:20:00,74.7,20.6,30.12,NNE,22,5.8,7.2,13,0.00,,---,0.00,VWS V14.00,2013-03-11 20:20:00,
2013-03-11 13:21:00,72.9,20.9,30.15,ESE,112,2.0,5.4,14,0.00,,---,0.00,VWS V14.00,2013-03-11 20:21:00,
2013-03-11 13:24:00,75.4,21.2,30.15,West,270,0.0,2.7,13,0.00,,---,0.00,VWS V14.00,2013-03-11 20:24:00,
2013-03-11 13:25:00,73.6,19.8,30.12,NW,315,6.0,6.5,13,0.00,,---,0.00,VWS V14.00,2013-03-11 20:25:00,
2013-03-11 13:26:00,75.7,21.5,30.15,ENE,68,0.9,2.7,13,0.00,,---,0.00,VWS V14.00,2013-03-11 20:26:00,
2013-03-11 13:29:00,74.5,20.5,30.15,ESE,112,3.4,7.6,13,0.00,,---,0.00,VWS V14.00,2013-03-11 20:29:00,
2013-03-11 13:30:00,73.8,19.9,30.12,East,90,4.9,6.3,13,0.00,,---,0.00,VWS V14.00,2013-03-11 20:30:00,
2013-03-11 13:31:00,73.9,20.0,30.15,South,180,2.9,7.6,13,0.00,,---,0.00,VWS V14.00,2013-03-11 20:31:00,
2013-03-11 13:34:00,74.5,20.5,30.15,East,90,4.3,5.6,13,0.00,,---,0.00,VWS V14.00,2013-03-11 20:34:00,
2013-03-11 13:35:00,74.5,20.5,30.15,East,90,4.3,5.6,13,0.00,,---,0.00,VWS V14.00,2013-03-11 20:35:00,
2013-03-11 13:36:00,74.7,20.6,30.15,NNE,22,4.0,5.8,13,0.00,,---,0.00,VWS V14.00,2013-03-11 20:36:00,
2013-03-11 13:39:00,74.5,20.5,30.15,NNW,338,2.5,4.9,13,0.00,,---,0.00,VWS V14.00,2013-03-11 20:39:00,
2013-03-11 13:40:00,74.5,20.5,30.15,SE,135,2.0,4.9,13,0.00,,---,0.00,VWS V14.00,2013-03-11 20:40:00,
2013-03-11 13:41:00,74.5,20.5,30.15,SE,135,2.0,4.9,13,0.00,,---,0.00,VWS V14.00,2013-03-11 20:41:00,
2013-03-11 13:44:00,74.3,20.3,30.15,North,0,5.8,7.4,13,0.00,,---,0.00,VWS V14.00,2013-03-11 20:44:00,
2013-03-11 13:45:00,73.4,19.6,30.15,North,0,7.4,8.7,13,0.00,,---,0.00,VWS V14.00,2013-03-11 20:45:00,
2013-03-11 13:46:00,73.4,19.6,30.15,North,0,6.5,8.7,13,0.00,,---,0.00,VWS V14.00,2013-03-11 20:46:00,
2013-03-11 13:49:00,72.5,20.6,30.15,NE,45,5.6,10.7,14,0.00,,---,0.00,VWS V14.00,2013-03-11 20:49:00,
2013-03-11 13:50:00,73.4,19.6,30.15,ENE,68,2.7,10.7,13,0.00,,---,0.00,VWS V14.00,2013-03-11 20:50:00,
2013-03-11 13:51:00,73.4,19.6,30.15,ENE,68,2.5,10.7,13,0.00,,---,0.00,VWS V14.00,2013-03-11 20:51:00,
2013-03-11 13:54:00,72.9,20.9,30.15,East,90,5.6,7.6,14,0.00,,---,0.00,VWS V14.00,2013-03-11 20:54:00,
2013-03-11 13:55:00,72.9,20.9,30.15,ENE,68,5.6,7.6,14,0.00,,---,0.00,VWS V14.00,2013-03-11 20:55:00,
2013-03-11 13:57:00,73.0,21.1,30.15,SE,135,3.8,3.8,14,0.00,,---,0.00,VWS V14.00,2013-03-11 20:57:00,
2013-03-11 14:00:00,73.4,19.6,30.12,NE,45,5.8,5.8,13,0.00,,---,0.00,VWS V14.00,2013-03-11 21:00:00,
2013-03-11 14:01:00,73.4,19.6,30.12,NE,45,5.8,6.0,13,0.00,,---,0.00,VWS V14.00,2013-03-11 21:01:00,
2013-03-11 14:02:00,73.6,19.8,30.12,NE,45,3.8,6.5,13,0.00,,---,0.00,VWS V14.00,2013-03-11 21:02:00,
2013-03-11 14:05:00,73.8,19.9,30.12,East,90,3.1,6.5,13,0.00,,---,0.00,VWS V14.00,2013-03-11 21:05:00,
2013-03-11 14:06:00,72.9,20.9,30.12,North,0,6.5,6.5,14,0.00,,---,0.00,VWS V14.00,2013-03-11 21:06:00,
2013-03-11 14:07:00,72.3,20.5,30.12,NNE,22,5.8,6.5,14,0.00,,---,0.00,VWS V14.00,2013-03-11 21:07:00,
2013-03-11 14:10:00,72.5,20.6,30.12,NNE,22,8.1,8.1,14,0.00,,---,0.00,VWS V14.00,2013-03-11 21:10:00,
2013-03-11 14:11:00,72.5,20.6,30.12,NNE,22,2.9,2.9,14,0.00,,---,0.00,VWS V14.00,2013-03-11 21:11:00,
2013-03-11 14:12:00,73.8,19.9,30.12,ESE,112,3.6,6.3,13,0.00,,---,0.00,VWS V14.00,2013-03-11 21:12:00,
2013-03-11 14:15:00,74.7,20.6,30.12,NNW,338,2.5,6.5,13,0.00,,---,0.00,VWS V14.00,2013-03-11 21:15:00,
2013-03-11 14:16:00,74.8,20.7,30.12,East,90,2.5,3.8,13,0.00,,---,0.00,VWS V14.00,2013-03-11 21:16:00,
2013-03-11 14:17:00,74.7,20.6,30.12,ENE,68,5.8,5.8,13,0.00,,---,0.00,VWS V14.00,2013-03-11 21:17:00,
2013-03-11 14:20:00,75.0,20.9,30.12,NNE,22,2.7,5.8,13,0.00,,---,0.00,VWS V14.00,2013-03-11 21:20:00,
2013-03-11 14:21:00,74.7,20.6,30.12,NE,45,5.4,5.8,13,0.00,,---,0.00,VWS V14.00,2013-03-11 21:21:00,
2013-03-11 14:22:00,74.3,20.3,30.12,NNE,22,5.6,5.8,13,0.00,,---,0.00,VWS V14.00,2013-03-11 21:22:00,
2013-03-11 14:25:00,73.9,20.0,30.12,NNW,338,4.3,6.5,13,0.00,,---,0.00,VWS V14.00,2013-03-11 21:25:00,
2013-03-11 14:27:00,73.9,20.0,30.12,NW,315,4.3,6.3,13,0.00,,---,0.00,VWS V14.00,2013-03-11 21:27:00,
2013-03-11 14:30:00,73.8,19.9,30.12,East,90,5.4,6.3,13,0.00,,---,0.00,VWS V14.00,2013-03-11 21:30:00,
2013-03-11 14:32:00,73.4,19.6,30.12,East,90,5.4,8.1,13,0.00,,---,0.00,VWS V14.00,2013-03-11 21:32:00,
2013-03-11 14:35:00,73.6,19.8,30.12,East,90,4.9,8.1,13,0.00,,---,0.00,VWS V14.00,2013-03-11 21:35:00,
2013-03-11 14:37:00,73.2,21.2,30.12,SE,135,3.1,5.4,14,0.00,,---,0.00,VWS V14.00,2013-03-11 21:37:00,
2013-03-11 14:38:00,73.2,21.2,30.12,ESE,112,2.9,5.4,14,0.00,,---,0.00,VWS V14.00,2013-03-11 21:38:00,
2013-03-11 14:40:00,72.9,20.9,30.12,NNE,22,8.1,8.7,14,0.00,,---,0.00,VWS V14.00,2013-03-11 21:40:00,
2013-03-11 14:42:00,72.9,20.9,30.12,NE,45,7.2,8.7,14,0.00,,---,0.00,VWS V14.00,2013-03-11 21:42:00,
2013-03-11 14:43:00,72.7,20.8,30.12,ENE,68,5.4,8.7,14,0.00,,---,0.00,VWS V14.00,2013-03-11 21:43:00,
2013-03-11 14:45:00,73.8,19.9,30.12,NE,45,2.0,8.7,13,0.00,,---,0.00,VWS V14.00,2013-03-11 21:45:00,
2013-03-11 14:46:00,73.8,19.9,30.12,NE,45,2.0,8.7,13,0.00,,---,0.00,VWS V14.00,2013-03-11 21:46:00,
2013-03-11 14:48:00,73.9,20.0,30.12,East,90,6.3,8.7,13,0.00,,---,0.00,VWS V14.00,2013-03-11 21:48:00,
2013-03-11 14:50:00,73.2,21.2,30.12,SE,135,4.0,8.7,14,0.00,,---,0.00,VWS V14.00,2013-03-11 21:50:00,
2013-03-11 14:51:00,73.2,21.2,30.12,South,180,3.4,8.7,14,0.00,,---,0.00,VWS V14.00,2013-03-11 21:51:00,
2013-03-11 14:53:00,73.2,21.2,30.12,South,180,0.0,3.4,14,0.00,,---,0.00,VWS V14.00,2013-03-11 21:53:00,
2013-03-11 14:55:00,74.7,20.6,30.12,East,90,4.3,6.5,13,0.00,,---,0.00,VWS V14.00,2013-03-11 21:55:00,
2013-03-11 14:56:00,75.0,20.9,30.12,NNE,22,3.4,4.0,13,0.00,,---,0.00,VWS V14.00,2013-03-11 21:56:00,
2013-03-11 14:58:00,75.0,20.9,30.12,NNE,22,5.4,5.4,13,0.00,,---,0.00,VWS V14.00,2013-03-11 21:58:00,
2013-03-11 14:59:00,75.0,20.9,30.12,NNE,22,5.4,5.4,13,0.00,,---,0.00,VWS V14.00,2013-03-11 21:59:00,
2013-03-11 15:00:00,75.2,21.0,30.12,ENE,68,3.8,5.4,13,0.00,,---,0.00,VWS V14.00,2013-03-11 22:00:00,
2013-03-11 15:02:00,75.6,21.3,30.12,ENE,68,2.7,3.8,13,0.00,,---,0.00,VWS V14.00,2013-03-11 22:02:00,
2013-03-11 15:03:00,75.6,21.3,30.12,NNE,22,4.0,4.0,13,0.00,,---,0.00,VWS V14.00,2013-03-11 22:03:00,
2013-03-11 15:04:00,76.5,22.0,30.12,East,90,3.6,4.0,13,0.00,,---,0.00,VWS V14.00,2013-03-11 22:04:00,
2013-03-11 15:05:00,75.4,21.2,30.12,East,90,4.0,6.0,13,0.00,,---,0.00,VWS V14.00,2013-03-11 22:05:00,
2013-03-11 15:07:00,75.0,20.9,30.12,East,90,4.3,4.3,13,0.00,,---,0.00,VWS V14.00,2013-03-11 22:07:00,
2013-03-11 15:08:00,74.8,20.7,30.12,East,90,2.0,4.9,13,0.00,,---,0.00,VWS V14.00,2013-03-11 22:08:00,
2013-03-11 15:09:00,74.8,20.7,30.12,ESE,112,4.0,4.9,13,0.00,,---,0.00,VWS V14.00,2013-03-11 22:09:00,
2013-03-11 15:10:00,75.9,21.6,30.09,SE,135,3.6,6.0,13,0.00,,---,0.00,VWS V14.00,2013-03-11 22:10:00,
2013-03-11 15:12:00,74.8,20.7,30.12,East,90,4.3,4.9,13,0.00,,---,0.00,VWS V14.00,2013-03-11 22:12:00,
2013-03-11 15:13:00,74.8,20.7,30.12,East,90,57.5,57.5,13,0.00,,---,0.00,VWS V14.00,2013-03-11 22:13:00,
2013-03-11 15:15:00,74.7,20.6,30.12,East,90,4.0,57.5,13,0.00,,---,0.00,VWS V14.00,2013-03-11 22:15:00,
2013-03-11 15:17:00,75.0,20.9,30.12,East,90,3.4,3.4,13,0.00,,---,0.00,VWS V14.00,2013-03-11 22:17:00,
2013-03-11 15:18:00,75.0,20.9,30.12,SE,135,2.9,3.4,13,0.00,,---,0.00,VWS V14.00,2013-03-11 22:18:00,
2013-03-11 15:19:00,75.0,20.9,30.12,SE,135,2.5,3.4,13,0.00,,---,0.00,VWS V14.00,2013-03-11 22:19:00,
2013-03-11 15:20:00,75.6,21.3,30.12,SSE,158,2.2,3.8,13,0.00,,---,0.00,VWS V14.00,2013-03-11 22:20:00,
2013-03-11 15:22:00,75.6,21.3,30.12,East,90,2.9,2.9,13,0.00,,---,0.00,VWS V14.00,2013-03-11 22:22:00,
2013-03-11 15:23:00,77.0,22.4,30.12,ESE,112,2.7,2.9,13,0.00,,---,0.00,VWS V14.00,2013-03-11 22:23:00,
2013-03-11 15:24:00,77.0,22.4,30.12,ESE,112,2.7,2.9,13,0.00,,---,0.00,VWS V14.00,2013-03-11 22:24:00,
2013-03-11 15:25:00,76.6,22.1,30.12,WNW,292,1.3,2.9,13,0.00,,---,0.00,VWS V14.00,2013-03-11 22:25:00,
2013-03-11 15:27:00,76.6,22.1,30.12,NNW,338,0.0,1.3,13,0.00,,---,0.00,VWS V14.00,2013-03-11 22:27:00,
2013-03-11 15:28:00,76.6,22.1,30.12,NNW,338,0.0,1.3,13,0.00,,---,0.00,VWS V14.00,2013-03-11 22:28:00,
2013-03-11 15:29:00,78.6,23.7,30.09,NNE,22,1.3,2.5,13,0.00,,---,0.00,VWS V14.00,2013-03-11 22:29:00,
2013-03-11 15:30:00,78.6,23.7,30.09,East,90,1.3,2.5,13,0.00,,---,0.00,VWS V14.00,2013-03-11 22:30:00,
2013-03-11 15:32:00,77.4,22.7,30.09,East,90,4.0,5.4,13,0.00,,---,0.00,VWS V14.00,2013-03-11 22:32:00,
2013-03-11 15:33:00,77.4,22.7,30.09,East,90,4.9,5.4,13,0.00,,---,0.00,VWS V14.00,2013-03-11 22:33:00,
2013-03-11 15:34:00,75.7,21.5,30.09,ESE,112,4.9,5.4,13,0.00,,---,0.00,VWS V14.00,2013-03-11 22:34:00,
2013-03-11 15:35:00,75.4,21.2,30.09,SE,135,4.5,6.3,13,0.00,,---,0.00,VWS V14.00,2013-03-11 22:35:00,
2013-03-11 15:38:00,74.8,20.7,30.09,South,180,2.0,3.6,13,0.00,,---,0.00,VWS V14.00,2013-03-11 22:38:00,
2013-03-11 15:39:00,74.3,20.3,30.09,SSW,202,3.1,4.5,13,0.00,,---,0.00,VWS V14.00,2013-03-11 22:39:00,
2013-03-11 15:40:00,74.3,20.3,30.09,SSW,202,3.1,4.5,13,0.00,,---,0.00,VWS V14.00,2013-03-11 22:40:00,
2013-03-11 15:43:00,74.5,20.5,30.09,SW,225,4.7,6.3,13,0.00,,---,0.00,VWS V14.00,2013-03-11 22:43:00,
2013-03-11 15:44:00,73.2,21.2,30.09,SW,225,5.8,6.3,14,0.00,,---,0.00,VWS V14.00,2013-03-11 22:44:00,
2013-03-11 15:45:00,74.1,20.2,30.09,SW,225,1.3,6.3,13,0.00,,---,0.00,VWS V14.00,2013-03-11 22:45:00,
2013-03-11 15:48:00,75.4,21.2,30.09,East,90,2.0,2.5,13,0.00,,---,0.00,VWS V14.00,2013-03-11 22:48:00,
2013-03-11 15:49:00,75.4,21.2,30.09,East,90,2.0,2.5,13,0.00,,---,0.00,VWS V14.00,2013-03-11 22:49:00,
2013-03-11 15:50:00,73.2,21.2,30.06,NNE,22,0.9,3.6,14,0.00,,---,0.00,VWS V14.00,2013-03-11 22:50:00,
2013-03-11 15:51:00,76.1,21.7,30.09,ENE,68,0.0,3.6,13,0.00,,---,0.00,VWS V14.00,2013-03-11 22:51:00,
2013-03-11 15:53:00,76.1,21.7,30.09,NNE,22,1.3,1.3,13,0.00,,---,0.00,VWS V14.00,2013-03-11 22:53:00,
2013-03-11 15:54:00,76.6,22.1,30.09,NNE,22,1.3,1.3,13,0.00,,---,0.00,VWS V14.00,2013-03-11 22:54:00,
2013-03-11 15:55:00,72.3,20.5,30.06,NE,45,3.8,4.7,14,0.00,,---,0.00,VWS V14.00,2013-03-11 22:55:00,
2013-03-11 15:56:00,76.5,22.0,30.09,North,0,3.1,3.8,13,0.00,,---,0.00,VWS V14.00,2013-03-11 22:56:00,
2013-03-11 15:58:00,76.5,22.0,30.09,ENE,68,3.6,3.8,13,0.00,,---,0.00,VWS V14.00,2013-03-11 22:58:00,
2013-03-11 15:59:00,76.8,22.3,30.09,NE,45,5.8,5.8,13,0.00,,---,0.00,VWS V14.00,2013-03-11 22:59:00,
2013-03-11 16:00:00,72.7,20.8,30.06,East,90,3.1,4.9,14,0.00,,---,0.00,VWS V14.00,2013-03-11 23:00:00,
2013-03-11 16:02:00,76.6,22.1,30.09,ENE,68,3.4,6.3,13,0.00,,---,0.00,VWS V14.00,2013-03-11 23:02:00,
2013-03-11 16:03:00,76.6,22.1,30.09,NNE,22,0.0,6.3,13,0.00,,---,0.00,VWS V14.00,2013-03-11 23:03:00,
2013-03-11 16:04:00,76.6,22.1,30.09,NNE,22,0.0,6.3,13,0.00,,---,0.00,VWS V14.00,2013-03-11 23:04:00,
2013-03-11 16:08:00,76.6,22.1,30.09,East,90,4.3,4.3,13,0.00,,---,0.00,VWS V14.00,2013-03-11 23:08:00,
2013-03-11 16:09:00,75.9,21.6,30.09,East,90,6.0,6.0,13,0.00,,---,0.00,VWS V14.00,2013-03-11 23:09:00,
2013-03-11 16:10:00,72.9,20.9,30.06,ENE,68,4.0,4.3,14,0.00,,---,0.00,VWS V14.00,2013-03-11 23:10:00,
2013-03-11 16:13:00,75.6,21.3,30.09,SE,135,2.9,3.6,13,0.00,,---,0.00,VWS V14.00,2013-03-11 23:13:00,
2013-03-11 16:14:00,75.0,20.9,30.06,SE,135,5.6,5.6,13,0.00,,---,0.00,VWS V14.00,2013-03-11 23:14:00,
2013-03-11 16:15:00,71.8,20.1,30.06,SE,135,4.9,5.6,14,0.00,,---,0.00,VWS V14.00,2013-03-11 23:15:00,
2013-03-11 16:18:00,75.0,20.9,30.06,SE,135,2.2,3.1,13,0.00,,---,0.00,VWS V14.00,2013-03-11 23:18:00,
2013-03-11 16:19:00,75.0,20.9,30.06,SE,135,2.2,3.1,13,0.00,,---,0.00,VWS V14.00,2013-03-11 23:19:00,
2013-03-11 16:20:00,70.7,19.2,30.06,SE,135,1.6,7.8,14,0.00,,---,0.00,VWS V14.00,2013-03-11 23:20:00,
2013-03-11 16:23:00,75.4,21.2,30.06,NE,45,1.3,4.3,13,0.00,,---,0.00,VWS V14.00,2013-03-11 23:23:00,
2013-03-11 16:24:00,75.4,21.2,30.06,SE,135,3.4,4.3,13,0.00,,---,0.00,VWS V14.00,2013-03-11 23:24:00,
2013-03-11 16:25:00,70.0,18.6,30.06,East,90,4.0,6.5,14,0.00,,---,0.00,VWS V14.00,2013-03-11 23:25:00,
2013-03-11 16:28:00,74.1,20.2,30.06,East,90,2.5,4.0,13,0.00,,---,0.00,VWS V14.00,2013-03-11 23:28:00,
2013-03-11 16:29:00,74.1,20.2,30.06,NNW,338,4.0,4.0,13,0.00,,---,0.00,VWS V14.00,2013-03-11 23:29:00,
2013-03-11 16:30:00,73.9,20.0,30.06,East,90,6.0,6.0,13,0.00,,---,0.00,VWS V14.00,2013-03-11 23:30:00,
2013-03-11 16:33:00,72.9,20.9,30.06,SE,135,4.3,7.6,14,0.00,,---,0.00,VWS V14.00,2013-03-11 23:33:00,
2013-03-11 16:34:00,72.7,20.8,30.06,East,90,2.9,7.6,14,0.00,,---,0.00,VWS V14.00,2013-03-11 23:34:00,
2013-03-11 16:35:00,72.5,20.6,30.06,SE,135,2.5,7.6,14,0.00,,---,0.00,VWS V14.00,2013-03-11 23:35:00,
2013-03-11 16:38:00,72.5,20.6,30.06,East,90,3.6,7.6,14,0.00,,---,0.00,VWS V14.00,2013-03-11 23:38:00,
2013-03-11 16:39:00,72.5,20.6,30.06,East,90,2.5,7.6,14,0.00,,---,0.00,VWS V14.00,2013-03-11 23:39:00,
2013-03-11 16:40:00,72.7,20.8,30.06,SE,135,2.9,7.6,14,0.00,,---,0.00,VWS V14.00,2013-03-11 23:40:00,
2013-03-11 16:43:00,72.3,20.5,30.06,ESE,112,4.0,7.2,14,0.00,,---,0.00,VWS V14.00,2013-03-11 23:43:00,
2013-03-11 16:44:00,72.1,20.4,30.06,East,90,3.8,7.2,14,0.00,,---,0.00,VWS V14.00,2013-03-11 23:44:00,
2013-03-11 16:45:00,72.0,20.2,30.06,East,90,3.1,7.2,14,0.00,,---,0.00,VWS V14.00,2013-03-11 23:45:00,
2013-03-11 16:48:00,72.7,20.8,30.06,ENE,68,0.0,3.4,14,0.00,,---,0.00,VWS V14.00,2013-03-11 23:48:00,
2013-03-11 16:49:00,73.0,21.1,30.06,East,90,3.6,3.6,14,0.00,,---,0.00,VWS V14.00,2013-03-11 23:49:00,
2013-03-11 16:50:00,73.0,21.1,30.06,NE,45,2.7,3.6,14,0.00,,---,0.00,VWS V14.00,2013-03-11 23:50:00,
2013-03-11 16:54:00,72.3,20.5,30.06,ENE,68,2.5,3.1,14,0.00,,---,0.00,VWS V14.00,2013-03-11 23:54:00,
2013-03-11 16:55:00,72.3,20.5,30.06,SE,135,2.5,4.7,14,0.00,,---,0.00,VWS V14.00,2013-03-11 23:55:00,
2013-03-11 16:59:00,72.3,20.5,30.06,NE,45,3.6,4.9,14,0.00,,---,0.00,VWS V14.00,2013-03-11 23:59:00,
2013-03-11 17:00:00,72.5,20.6,30.06,ENE,68,1.3,4.9,14,0.00,,---,0.00,VWS V14.00,2013-03-12 00:00:00,
2013-03-11 17:01:00,72.7,20.8,30.06,East,90,3.1,4.9,14,0.00,,---,0.00,VWS V14.00,2013-03-12 00:01:00,
2013-03-11 17:04:00,72.1,20.4,30.06,ESE,112,3.4,4.3,14,0.00,,---,0.00,VWS V14.00,2013-03-12 00:04:00,
2013-03-11 17:05:00,72.1,20.4,30.06,ESE,112,3.4,4.3,14,0.00,,---,0.00,VWS V14.00,2013-03-12 00:05:00,
2013-03-11 17:06:00,72.1,20.4,30.06,ESE,112,3.4,4.3,14,0.00,,---,0.00,VWS V14.00,2013-03-12 00:06:00,
2013-03-11 17:09:00,72.9,20.9,30.06,SE,135,0.0,4.3,14,0.00,,---,0.00,VWS V14.00,2013-03-12 00:09:00,
2013-03-11 17:10:00,72.9,20.9,30.06,SE,135,0.0,4.3,14,0.00,,---,0.00,VWS V14.00,2013-03-12 00:10:00,
2013-03-11 17:11:00,72.9,20.9,30.06,ENE,68,4.0,4.0,14,0.00,,---,0.00,VWS V14.00,2013-03-12 00:11:00,
2013-03-11 17:14:00,72.3,20.5,30.06,SE,135,5.6,5.6,14,0.00,,---,0.00,VWS V14.00,2013-03-12 00:14:00,
2013-03-11 17:15:00,71.8,20.1,30.06,SSE,158,4.0,5.6,14,0.00,,---,0.00,VWS V14.00,2013-03-12 00:15:00,
2013-03-11 17:16:00,71.8,20.1,30.06,SE,135,4.9,4.9,14,0.00,,---,0.00,VWS V14.00,2013-03-12 00:16:00,
2013-03-11 17:20:00,70.7,19.2,30.06,ESE,112,6.3,7.8,14,0.00,,---,0.00,VWS V14.00,2013-03-12 00:20:00,
2013-03-11 17:21:00,70.2,18.8,30.06,SE,135,1.6,1.6,14,0.00,,---,0.00,VWS V14.00,2013-03-12 00:21:00,
2013-03-11 17:22:00,70.2,18.8,30.06,SE,135,1.6,1.6,14,0.00,,---,0.00,VWS V14.00,2013-03-12 00:22:00,
2013-03-11 17:25:00,70.2,18.8,30.06,ENE,68,3.4,5.6,14,0.00,,---,0.00,VWS V14.00,2013-03-12 00:25:00,
2013-03-11 17:26:00,70.0,18.6,30.06,East,90,4.3,4.3,14,0.00,,---,0.00,VWS V14.00,2013-03-12 00:26:00,
2013-03-11 17:27:00,70.2,18.8,30.06,ESE,112,4.0,4.3,14,0.00,,---,0.00,VWS V14.00,2013-03-12 00:27:00,
2013-03-11 17:30:00,70.2,18.8,30.03,ENE,68,2.9,4.7,14,0.00,,---,0.00,VWS V14.00,2013-03-12 00:30:00,
2013-03-11 17:31:00,70.2,18.8,30.03,ENE,68,4.3,4.3,14,0.00,,---,0.00,VWS V14.00,2013-03-12 00:31:00,
2013-03-11 17:32:00,70.2,18.8,30.03,ENE,68,4.3,4.3,14,0.00,,---,0.00,VWS V14.00,2013-03-12 00:32:00,
2013-03-11 17:35:00,70.2,18.8,30.03,North,0,3.1,4.3,14,0.00,,---,0.00,VWS V14.00,2013-03-12 00:35:00,
2013-03-11 17:37:00,69.4,19.8,30.03,North,0,1.3,4.3,15,0.00,,---,0.00,VWS V14.00,2013-03-12 00:37:00,
2013-03-11 17:40:00,69.1,19.5,30.03,NE,45,3.4,4.9,15,0.00,,---,0.00,VWS V14.00,2013-03-12 00:40:00,
2013-03-11 17:41:00,69.1,19.5,30.03,NE,45,3.6,3.6,15,0.00,,---,0.00,VWS V14.00,2013-03-12 00:41:00,
2013-03-11 17:42:00,69.1,19.5,30.06,NE,45,3.8,4.0,15,0.00,,---,0.00,VWS V14.00,2013-03-12 00:42:00,
2013-03-11 17:45:00,68.7,19.2,30.06,ESE,112,3.4,4.0,15,0.00,,---,0.00,VWS V14.00,2013-03-12 00:45:00,
2013-03-11 17:47:00,68.5,19.1,30.06,East,90,3.6,4.3,15,0.00,,---,0.00,VWS V14.00,2013-03-12 00:47:00,
2013-03-11 17:50:00,68.5,19.1,30.06,NE,45,2.2,4.3,15,0.00,,---,0.00,VWS V14.00,2013-03-12 00:50:00,
2013-03-11 17:52:00,68.5,19.1,30.06,East,90,0.0,4.3,15,0.00,,---,0.00,VWS V14.00,2013-03-12 00:52:00,
2013-03-11 17:53:00,68.5,19.1,30.06,East,90,0.0,4.3,15,0.00,,---,0.00,VWS V14.00,2013-03-12 00:53:00,
2013-03-11 17:55:00,68.0,18.7,30.06,East,90,4.3,4.3,15,0.00,,---,0.00,VWS V14.00,2013-03-12 00:55:00,
2013-03-11 17:57:00,67.6,18.4,30.06,East,90,4.0,4.0,15,0.00,,---,0.00,VWS V14.00,2013-03-12 00:57:00,
2013-03-11 17:58:00,67.5,18.2,30.06,ESE,112,3.6,5.4,15,0.00,,---,0.00,VWS V14.00,2013-03-12 00:58:00,
2013-03-11 18:00:00,67.5,18.2,30.06,ESE,112,4.9,5.4,15,0.00,,---,0.00,VWS V14.00,2013-03-12 01:00:00,
2013-03-11 18:02:00,66.7,17.6,30.06,East,90,4.0,5.6,15,0.00,,---,0.00,VWS V14.00,2013-03-12 01:02:00,
2013-03-11 18:03:00,66.6,17.5,30.06,SE,135,3.4,5.6,15,0.00,,---,0.00,VWS V14.00,2013-03-12 01:03:00,
2013-03-11 18:05:00,66.6,17.5,30.06,SE,135,3.8,5.6,15,0.00,,---,0.00,VWS V14.00,2013-03-12 01:05:00,
2013-03-11 18:07:00,66.4,17.4,30.06,East,90,4.9,4.9,15,0.00,,---,0.00,VWS V14.00,2013-03-12 01:07:00,
2013-03-11 18:08:00,66.2,17.2,30.06,ESE,112,4.3,4.9,15,0.00,,---,0.00,VWS V14.00,2013-03-12 01:08:00,
2013-03-11 18:10:00,66.2,17.2,30.06,East,90,2.7,4.9,15,0.00,,---,0.00,VWS V14.00,2013-03-12 01:10:00,
2013-03-11 18:12:00,66.0,17.1,30.06,East,90,3.4,3.8,15,0.00,,---,0.00,VWS V14.00,2013-03-12 01:12:00,
2013-03-11 18:13:00,66.0,17.1,30.06,East,90,4.0,4.0,15,0.00,,---,0.00,VWS V14.00,2013-03-12 01:13:00,
2013-03-11 18:15:00,65.5,16.6,30.06,ESE,112,4.3,4.9,15,0.00,,---,0.00,VWS V14.00,2013-03-12 01:15:00,
2013-03-11 18:16:00,65.5,16.6,30.06,SE,135,4.3,4.9,15,0.00,,---,0.00,VWS V14.00,2013-03-12 01:16:00,
2013-03-11 18:18:00,65.1,16.4,30.06,East,90,4.9,5.8,15,0.00,,---,0.00,VWS V14.00,2013-03-12 01:18:00,
2013-03-11 18:19:00,64.8,16.1,30.06,ESE,112,3.6,5.8,15,0.00,,---,0.00,VWS V14.00,2013-03-12 01:19:00,
2013-03-11 18:20:00,64.6,15.9,30.06,East,90,3.1,5.8,15,0.00,,---,0.00,VWS V14.00,2013-03-12 01:20:00,
2013-03-11 18:21:00,64.6,15.9,30.06,ESE,112,3.1,4.3,15,0.00,,---,0.00,VWS V14.00,2013-03-12 01:21:00,
2013-03-11 18:23:00,64.4,15.8,30.06,SE,135,3.8,4.7,15,0.00,,---,0.00,VWS V14.00,2013-03-12 01:23:00,
2013-03-11 18:24:00,64.2,17.1,30.06,ESE,112,2.5,4.7,16,0.00,,---,0.00,VWS V14.00,2013-03-12 01:24:00,
2013-03-11 18:25:00,64.2,17.1,30.06,ESE,112,2.5,4.7,16,0.00,,---,0.00,VWS V14.00,2013-03-12 01:25:00,
2013-03-11 18:26:00,64.2,17.1,30.06,ESE,112,3.4,4.7,16,0.00,,---,0.00,VWS V14.00,2013-03-12 01:26:00,
2013-03-11 18:28:00,63.5,16.5,30.06,East,90,3.6,4.7,16,0.00,,---,0.00,VWS V14.00,2013-03-12 01:28:00,
2013-03-11 18:29:00,63.5,16.5,30.06,East,90,4.0,4.7,16,0.00,,---,0.00,VWS V14.00,2013-03-12 01:29:00,
2013-03-11 18:30:00,63.5,16.5,30.06,East,90,4.3,4.7,16,0.00,,---,0.00,VWS V14.00,2013-03-12 01:30:00,
2013-03-11 18:32:00,63.3,16.4,30.06,East,90,4.0,4.0,16,0.00,,---,0.00,VWS V14.00,2013-03-12 01:32:00,
2013-03-11 18:33:00,63.0,16.1,30.06,East,90,3.4,4.0,16,0.00,,---,0.00,VWS V14.00,2013-03-12 01:33:00,
2013-03-11 18:34:00,63.0,16.1,30.06,East,90,4.0,4.7,16,0.00,,---,0.00,VWS V14.00,2013-03-12 01:34:00,
2013-03-11 18:35:00,62.8,15.9,30.06,East,90,3.6,4.7,16,0.00,,---,0.00,VWS V14.00,2013-03-12 01:35:00,
2013-03-11 18:37:00,62.4,15.7,30.06,East,90,2.5,4.0,16,0.00,,---,0.00,VWS V14.00,2013-03-12 01:37:00,
2013-03-11 18:38:00,62.2,15.5,30.06,East,90,2.9,4.0,16,0.00,,---,0.00,VWS V14.00,2013-03-12 01:38:00,
2013-03-11 18:39:00,62.2,15.5,30.06,East,90,2.9,4.0,16,0.00,,---,0.00,VWS V14.00,2013-03-12 01:39:00,
2013-03-11 18:40:00,61.9,15.2,30.06,ESE,112,2.5,4.0,16,0.00,,---,0.00,VWS V14.00,2013-03-12 01:40:00,
2013-03-11 18:42:00,61.7,15.1,30.06,East,90,2.7,2.9,16,0.00,,---,0.00,VWS V14.00,2013-03-12 01:42:00,
2013-03-11 18:43:00,61.7,15.1,30.06,ESE,112,3.6,3.6,16,0.00,,---,0.00,VWS V14.00,2013-03-12 01:43:00,
2013-03-11 18:44:00,61.2,14.6,30.06,ESE,112,3.4,3.6,16,0.00,,---,0.00,VWS V14.00,2013-03-12 01:44:00,
2013-03-11 18:45:00,61.0,14.5,30.06,NE,45,2.9,3.6,16,0.00,,---,0.00,VWS V14.00,2013-03-12 01:45:00,
2013-03-11 18:47:00,60.8,14.4,30.06,East,90,2.0,2.7,16,0.00,,---,0.00,VWS V14.00,2013-03-12 01:47:00,
2013-03-11 18:49:00,60.8,14.4,30.06,East,90,2.5,2.7,16,0.00,,---,0.00,VWS V14.00,2013-03-12 01:49:00,
2013-03-11 18:50:00,60.3,15.3,30.06,East,90,1.6,2.7,17,0.00,,---,0.00,VWS V14.00,2013-03-12 01:50:00,
2013-03-11 18:52:00,59.7,14.9,30.06,East,90,2.2,2.5,17,0.00,,---,0.00,VWS V14.00,2013-03-12 01:52:00,
2013-03-11 18:54:00,59.4,14.6,30.06,East,90,2.5,2.5,17,0.00,,---,0.00,VWS V14.00,2013-03-12 01:54:00,
2013-03-11 18:55:00,59.2,14.4,30.06,East,90,2.5,2.7,17,0.00,,---,0.00,VWS V14.00,2013-03-12 01:55:00,
2013-03-11 18:56:00,59.2,14.4,30.06,East,90,1.6,2.7,17,0.00,,---,0.00,VWS V14.00,2013-03-12 01:56:00,
2013-03-11 18:58:00,58.8,14.1,30.06,East,90,1.1,2.7,17,0.00,,---,0.00,VWS V14.00,2013-03-12 01:58:00,
2013-03-11 18:59:00,58.5,13.8,30.06,East,90,2.7,2.7,17,0.00,,---,0.00,VWS V14.00,2013-03-12 01:59:00,
2013-03-11 19:00:00,58.5,13.8,30.06,East,90,2.7,2.7,17,0.00,,---,0.00,VWS V14.00,2013-03-12 02:00:00,
2013-03-11 19:01:00,58.3,13.7,30.06,ESE,112,3.8,3.8,17,0.00,,---,0.00,VWS V14.00,2013-03-12 02:01:00,
2013-03-11 19:03:00,57.9,9.0,30.06,ESE,112,3.6,4.0,14,0.00,,---,0.00,VWS V14.00,2013-03-12 02:03:00,
2013-03-11 19:04:00,57.9,9.0,30.06,East,90,2.9,4.0,14,0.00,,---,0.00,VWS V14.00,2013-03-12 02:04:00,
2013-03-11 19:05:00,57.6,8.7,30.06,ESE,112,2.5,4.0,14,0.00,,---,0.00,VWS V14.00,2013-03-12 02:05:00,
2013-03-11 19:06:00,57.6,8.7,30.06,ESE,112,2.5,4.0,14,0.00,,---,0.00,VWS V14.00,2013-03-12 02:06:00,
2013-03-11 19:08:00,57.0,9.8,30.06,East,90,2.2,4.0,15,0.00,,---,0.00,VWS V14.00,2013-03-12 02:08:00,
2013-03-11 19:09:00,56.8,9.7,30.06,East,90,2.0,4.0,15,0.00,,---,0.00,VWS V14.00,2013-03-12 02:09:00,
2013-03-11 19:10:00,56.8,9.7,30.06,East,90,2.9,4.0,15,0.00,,---,0.00,VWS V14.00,2013-03-12 02:10:00,
2013-03-11 19:11:00,56.8,9.7,30.06,East,90,2.9,4.0,15,0.00,,---,0.00,VWS V14.00,2013-03-12 02:11:00,
2013-03-11 19:13:00,56.1,9.1,30.06,ESE,112,2.5,4.0,15,0.00,,---,0.00,VWS V14.00,2013-03-12 02:13:00,
2013-03-11 19:14:00,56.1,9.1,30.06,East,90,0.0,4.0,15,0.00,,---,0.00,VWS V14.00,2013-03-12 02:14:00,
2013-03-11 19:15:00,55.6,8.7,30.06,East,90,0.0,4.0,15,0.00,,---,0.00,VWS V14.00,2013-03-12 02:15:00,
2013-03-11 19:17:00,55.4,8.5,30.06,East,90,2.7,2.7,15,0.00,,---,0.00,VWS V14.00,2013-03-12 02:17:00,
2013-03-11 19:18:00,55.2,8.4,30.06,East,90,2.5,2.7,15,0.00,,---,0.00,VWS V14.00,2013-03-12 02:18:00,
2013-03-11 19:19:00,55.0,8.2,30.06,East,90,3.6,3.6,15,0.00,,---,0.00,VWS V14.00,2013-03-12 02:19:00,
2013-03-11 19:20:00,54.9,8.1,30.06,East,90,2.5,3.6,15,0.00,,---,0.00,VWS V14.00,2013-03-12 02:20:00,
2013-03-11 19:22:00,54.7,8.0,30.06,ESE,112,2.0,2.0,15,0.00,,---,0.00,VWS V14.00,2013-03-12 02:22:00,
2013-03-11 19:23:00,54.5,7.8,30.06,East,90,1.6,2.5,15,0.00,,---,0.00,VWS V14.00,2013-03-12 02:23:00,
2013-03-11 19:25:00,54.1,7.5,30.06,East,90,2.2,2.5,15,0.00,,---,0.00,VWS V14.00,2013-03-12 02:25:00,
2013-03-11 19:26:00,54.1,7.5,30.06,East,90,2.2,2.5,15,0.00,,---,0.00,VWS V14.00,2013-03-12 02:26:00,
2013-03-11 19:27:00,53.8,7.2,30.06,East,90,2.5,2.5,15,0.00,,---,0.00,VWS V14.00,2013-03-12 02:27:00,
2013-03-11 19:28:00,53.8,7.2,30.06,East,90,2.5,2.5,15,0.00,,---,0.00,VWS V14.00,2013-03-12 02:28:00,
2013-03-11 19:30:00,53.2,8.2,30.06,East,90,1.6,2.5,16,0.00,,---,0.00,VWS V14.00,2013-03-12 02:30:00,
2013-03-11 19:31:00,53.1,8.1,30.06,East,90,0.0,2.5,16,0.00,,---,0.00,VWS V14.00,2013-03-12 02:31:00,
2013-03-11 19:32:00,52.9,7.9,30.06,East,90,1.6,2.7,16,0.00,,---,0.00,VWS V14.00,2013-03-12 02:32:00,
2013-03-11 19:33:00,52.9,7.9,30.06,East,90,0.0,2.7,16,0.00,,---,0.00,VWS V14.00,2013-03-12 02:33:00,
2013-03-11 19:35:00,52.7,7.8,30.06,ESE,112,0.0,2.7,16,0.00,,---,0.00,VWS V14.00,2013-03-12 02:35:00,
2013-03-11 19:36:00,52.7,7.8,30.06,ESE,112,0.0,2.7,16,0.00,,---,0.00,VWS V14.00,2013-03-12 02:36:00,
2013-03-11 19:37:00,52.3,7.5,30.06,ESE,112,0.0,0.0,16,0.00,,---,0.00,VWS V14.00,2013-03-12 02:37:00,
2013-03-11 19:39:00,52.0,7.2,30.06,ESE,112,0.0,0.0,16,0.00,,---,0.00,VWS V14.00,2013-03-12 02:39:00,
2013-03-11 19:40:00,52.0,7.2,30.06,ESE,112,0.0,0.0,16,0.00,,---,0.00,VWS V14.00,2013-03-12 02:40:00,
2013-03-11 19:41:00,51.8,7.1,30.06,ESE,112,0.0,0.0,16,0.00,,---,0.00,VWS V14.00,2013-03-12 02:41:00,
2013-03-11 19:42:00,51.8,7.1,30.06,East,90,0.0,0.0,16,0.00,,---,0.00,VWS V14.00,2013-03-12 02:42:00,
2013-03-11 19:44:00,51.4,6.8,30.06,ESE,112,0.9,2.2,16,0.00,,---,0.00,VWS V14.00,2013-03-12 02:44:00,
2013-03-11 19:45:00,51.3,6.6,30.06,ESE,112,0.0,2.2,16,0.00,,---,0.00,VWS V14.00,2013-03-12 02:45:00,
2013-03-11 19:46:00,51.3,6.6,30.06,ESE,112,0.0,0.0,16,0.00,,---,0.00,VWS V14.00,2013-03-12 02:46:00,
2013-03-11 19:47:00,51.1,6.5,30.06,ESE,112,0.0,0.0,16,0.00,,---,0.00,VWS V14.00,2013-03-12 02:47:00,
2013-03-11 19:49:00,50.9,6.3,30.06,ESE,112,0.0,0.0,16,0.00,,---,0.00,VWS V14.00,2013-03-12 02:49:00,
2013-03-11 19:50:00,50.7,6.2,30.06,ESE,112,0.0,0.0,16,0.00,,---,0.00,VWS V14.00,2013-03-12 02:50:00,
2013-03-11 19:51:00,50.7,6.2,30.06,ESE,112,0.0,1.1,16,0.00,,---,0.00,VWS V14.00,2013-03-12 02:51:00,
2013-03-11 19:52:00,50.5,6.0,30.06,ESE,112,0.0,1.1,16,0.00,,---,0.00,VWS V14.00,2013-03-12 02:52:00,
2013-03-11 19:54:00,50.4,5.9,30.06,SE,135,0.0,1.1,16,0.00,,---,0.00,VWS V14.00,2013-03-12 02:54:00,
2013-03-11 19:55:00,50.2,5.7,30.06,SSE,158,1.6,1.6,16,0.00,,---,0.00,VWS V14.00,2013-03-12 02:55:00,
2013-03-11 19:56:00,50.2,5.7,30.06,SE,135,2.5,2.5,16,0.00,,---,0.00,VWS V14.00,2013-03-12 02:56:00,
2013-03-11 19:57:00,50.2,5.7,30.06,SE,135,0.9,2.5,16,0.00,,---,0.00,VWS V14.00,2013-03-12 02:57:00,
2013-03-11 19:59:00,50.0,5.6,30.06,SE,135,0.0,2.5,16,0.00,,---,0.00,VWS V14.00,2013-03-12 02:59:00,
2013-03-11 20:00:00,46.6,4.1,30.09,NW,315,0.0,0.0,17,0.00,,---,0.00,VWS V14.00,2013-03-12 03:00:00,
2013-03-11 20:01:00,49.8,5.4,30.06,SSE,158,0.0,2.5,16,0.00,,---,0.00,VWS V14.00,2013-03-12 03:01:00,
2013-03-11 20:02:00,49.8,5.4,30.06,SSE,158,0.0,2.5,16,0.00,,---,0.00,VWS V14.00,2013-03-12 03:02:00,
2013-03-11 20:03:00,49.8,5.4,30.06,SSE,158,0.0,0.0,16,0.00,,---,0.00,VWS V14.00,2013-03-12 03:03:00,
2013-03-11 20:04:00,49.8,5.4,30.06,SSE,158,0.0,0.0,16,0.00,,---,0.00,VWS V14.00,2013-03-12 03:04:00,
2013-03-11 20:05:00,46.8,4.3,30.09,North,0,3.4,3.4,17,0.00,,---,0.00,VWS V14.00,2013-03-12 03:05:00,
2013-03-11 20:06:00,50.0,5.6,30.06,South,180,1.6,2.2,16,0.00,,---,0.00,VWS V14.00,2013-03-12 03:06:00,
2013-03-11 20:07:00,50.0,5.6,30.06,South,180,1.3,1.3,16,0.00,,---,0.00,VWS V14.00,2013-03-12 03:07:00,
2013-03-11 20:08:00,50.0,5.6,30.06,South,180,1.3,1.3,16,0.00,,---,0.00,VWS V14.00,2013-03-12 03:08:00,
2013-03-11 20:09:00,50.0,5.6,30.06,South,180,0.0,1.3,16,0.00,,---,0.00,VWS V14.00,2013-03-12 03:09:00,
2013-03-11 20:10:00,46.9,4.4,30.09,NNE,22,0.0,3.6,17,0.00,,---,0.00,VWS V14.00,2013-03-12 03:10:00,
2013-03-11 20:11:00,49.6,5.3,30.06,South,180,0.0,1.3,16,0.00,,---,0.00,VWS V14.00,2013-03-12 03:11:00,
2013-03-11 20:12:00,49.3,5.0,30.06,South,180,0.0,0.0,16,0.00,,---,0.00,VWS V14.00,2013-03-12 03:12:00,
2013-03-11 20:13:00,49.1,4.9,30.06,South,180,0.0,0.0,16,0.00,,---,0.00,VWS V14.00,2013-03-12 03:13:00,
2013-03-11 20:14:00,48.9,4.7,30.06,South,180,0.0,0.0,16,0.00,,---,0.00,VWS V14.00,2013-03-12 03:14:00,
2013-03-11 20:16:00,48.7,4.6,30.06,South,180,0.0,0.0,16,0.00,,---,0.00,VWS V14.00,2013-03-12 03:16:00,
2013-03-11 20:17:00,48.6,4.4,30.06,South,180,0.0,0.0,16,0.00,,---,0.00,VWS V14.00,2013-03-12 03:17:00,
2013-03-11 20:18:00,48.6,4.4,30.06,South,180,0.0,0.0,16,0.00,,---,0.00,VWS V14.00,2013-03-12 03:18:00,
2013-03-11 20:19:00,48.4,4.3,30.06,South,180,0.0,0.0,16,0.00,,---,0.00,VWS V14.00,2013-03-12 03:19:00,
2013-03-11 20:20:00,46.8,4.3,30.09,NNE,22,3.8,4.3,17,0.00,,---,0.00,VWS V14.00,2013-03-12 03:20:00,
2013-03-11 20:21:00,48.2,4.1,30.06,South,180,0.0,0.0,16,0.00,,---,0.00,VWS V14.00,2013-03-12 03:21:00,
2013-03-11 20:22:00,48.2,4.1,30.06,South,180,0.0,0.0,16,0.00,,---,0.00,VWS V14.00,2013-03-12 03:22:00,
2013-03-11 20:23:00,48.2,4.1,30.06,South,180,0.0,0.0,16,0.00,,---,0.00,VWS V14.00,2013-03-12 03:23:00,
2013-03-11 20:24:00,48.0,5.3,30.06,South,180,0.0,0.0,17,0.00,,---,0.00,VWS V14.00,2013-03-12 03:24:00,
2013-03-11 20:25:00,46.2,3.8,30.09,North,0,2.9,4.3,17,0.00,,---,0.00,VWS V14.00,2013-03-12 03:25:00,
2013-03-11 20:26:00,48.0,5.3,30.06,South,180,0.0,0.0,17,0.00,,---,0.00,VWS V14.00,2013-03-12 03:26:00,
2013-03-11 20:28:00,48.0,5.3,30.06,South,180,0.0,0.0,17,0.00,,---,0.00,VWS V14.00,2013-03-12 03:28:00,
2013-03-11 20:29:00,48.0,5.3,30.06,South,180,0.0,0.0,17,0.00,,---,0.00,VWS V14.00,2013-03-12 03:29:00,
2013-03-11 20:30:00,45.1,2.9,30.09,North,0,0.0,2.9,17,0.00,,---,0.00,VWS V14.00,2013-03-12 03:30:00,
2013-03-11 20:32:00,47.1,4.6,30.06,WNW,292,0.0,0.9,17,0.00,,---,0.00,VWS V14.00,2013-03-12 03:32:00,
2013-03-11 20:33:00,47.1,4.6,30.06,WNW,292,0.0,0.9,17,0.00,,---,0.00,VWS V14.00,2013-03-12 03:33:00,
2013-03-11 20:34:00,47.1,4.6,30.06,WNW,292,0.0,0.9,17,0.00,,---,0.00,VWS V14.00,2013-03-12 03:34:00,
2013-03-11 20:35:00,44.6,2.5,30.12,WNW,292,0.0,0.0,17,0.00,,---,0.00,VWS V14.00,2013-03-12 03:35:00,
2013-03-11 20:37:00,46.4,4.0,30.06,WNW,292,0.0,0.0,17,0.00,,---,0.00,VWS V14.00,2013-03-12 03:37:00,
2013-03-11 20:38:00,46.4,4.0,30.06,WNW,292,0.0,0.0,17,0.00,,---,0.00,VWS V14.00,2013-03-12 03:38:00,
2013-03-11 20:39:00,46.0,3.7,30.06,WNW,292,0.0,0.0,17,0.00,,---,0.00,VWS V14.00,2013-03-12 03:39:00,
2013-03-11 20:40:00,44.1,3.3,30.12,WNW,292,0.0,0.0,18,0.00,,---,0.00,VWS V14.00,2013-03-12 03:40:00,
2013-03-11 20:42:00,46.0,3.7,30.06,WNW,292,0.0,0.0,17,0.00,,---,0.00,VWS V14.00,2013-03-12 03:42:00,
2013-03-11 20:43:00,46.0,3.7,30.06,WNW,292,0.0,0.0,17,0.00,,---,0.00,VWS V14.00,2013-03-12 03:43:00,
2013-03-11 20:44:00,46.0,3.7,30.06,WNW,292,0.0,0.0,17,0.00,,---,0.00,VWS V14.00,2013-03-12 03:44:00,
2013-03-11 20:47:00,46.0,3.7,30.06,WNW,292,0.0,0.0,17,0.00,,---,0.00,VWS V14.00,2013-03-12 03:47:00,
2013-03-11 20:49:00,45.9,3.5,30.06,WNW,292,0.0,0.0,17,0.00,,---,0.00,VWS V14.00,2013-03-12 03:49:00,
2013-03-11 20:53:00,45.7,3.4,30.06,WNW,292,0.0,0.0,17,0.00,,---,0.00,VWS V14.00,2013-03-12 03:53:00,
2013-03-11 20:54:00,45.7,3.4,30.06,WNW,292,0.0,0.0,17,0.00,,---,0.00,VWS V14.00,2013-03-12 03:54:00,
2013-03-11 20:55:00,43.0,2.4,30.12,WNW,292,0.0,0.0,18,0.00,,---,0.00,VWS V14.00,2013-03-12 03:55:00,
2013-03-11 20:58:00,46.8,4.3,30.09,WNW,292,0.0,0.0,17,0.00,,---,0.00,VWS V14.00,2013-03-12 03:58:00,
2013-03-11 20:59:00,46.8,4.3,30.09,WNW,292,0.0,0.0,17,0.00,,---,0.00,VWS V14.00,2013-03-12 03:59:00,
2013-03-11 21:00:00,41.9,1.5,30.12,WNW,292,0.0,0.0,18,0.00,,---,0.00,VWS V14.00,2013-03-12 04:00:00,
2013-03-11 21:04:00,46.8,4.3,30.09,NNW,338,0.0,0.0,17,0.00,,---,0.00,VWS V14.00,2013-03-12 04:04:00,
2013-03-11 21:05:00,46.8,4.3,30.09,North,0,2.9,2.9,17,0.00,,---,0.00,VWS V14.00,2013-03-12 04:05:00,
2013-03-11 21:09:00,46.9,4.4,30.09,NNE,22,0.0,3.6,17,0.00,,---,0.00,VWS V14.00,2013-03-12 04:09:00,
2013-03-11 21:10:00,46.9,4.4,30.09,NNE,22,0.0,3.6,17,0.00,,---,0.00,VWS V14.00,2013-03-12 04:10:00,
2013-03-11 21:14:00,46.9,4.4,30.09,North,0,0.0,1.6,17,0.00,,---,0.00,VWS V14.00,2013-03-12 04:14:00,
2013-03-11 21:15:00,46.9,4.4,30.09,North,0,0.0,1.6,17,0.00,,---,0.00,VWS V14.00,2013-03-12 04:15:00,
2013-03-11 21:16:00,46.9,4.4,30.09,North,0,0.0,1.6,17,0.00,,---,0.00,VWS V14.00,2013-03-12 04:16:00,
2013-03-11 21:19:00,46.6,4.1,30.09,NNE,22,4.0,4.3,17,0.00,,---,0.00,VWS V14.00,2013-03-12 04:19:00,
2013-03-11 21:20:00,46.6,4.1,30.09,NNE,22,4.0,4.3,17,0.00,,---,0.00,VWS V14.00,2013-03-12 04:20:00,
2013-03-11 21:21:00,46.9,4.4,30.09,NNE,22,4.3,4.3,17,0.00,,---,0.00,VWS V14.00,2013-03-12 04:21:00,
2013-03-11 21:24:00,46.9,4.4,30.09,NNE,22,3.4,4.3,17,0.00,,---,0.00,VWS V14.00,2013-03-12 04:24:00,
2013-03-11 21:25:00,46.8,4.3,30.09,NNE,22,3.1,4.3,17,0.00,,---,0.00,VWS V14.00,2013-03-12 04:25:00,
2013-03-11 21:26:00,46.2,3.8,30.09,North,0,2.9,4.3,17,0.00,,---,0.00,VWS V14.00,2013-03-12 04:26:00,
2013-03-11 21:29:00,46.2,3.8,30.09,North,0,0.0,2.9,17,0.00,,---,0.00,VWS V14.00,2013-03-12 04:29:00,
2013-03-11 21:30:00,45.1,2.9,30.09,North,0,0.0,2.9,17,0.00,,---,0.00,VWS V14.00,2013-03-12 04:30:00,
2013-03-11 21:31:00,45.1,2.9,30.09,North,0,0.0,2.9,17,0.00,,---,0.00,VWS V14.00,2013-03-12 04:31:00,
2013-03-11 21:34:00,44.6,2.5,30.12,North,0,0.0,0.0,17,0.00,,---,0.00,VWS V14.00,2013-03-12 04:34:00,
2013-03-11 21:35:00,44.6,2.5,30.12,NNW,338,0.0,0.0,17,0.00,,---,0.00,VWS V14.00,2013-03-12 04:35:00,
2013-03-11 21:36:00,44.4,3.6,30.12,WNW,292,0.0,0.0,18,0.00,,---,0.00,VWS V14.00,2013-03-12 04:36:00,
2013-03-11 21:39:00,44.1,3.3,30.12,WNW,292,0.0,0.0,18,0.00,,---,0.00,VWS V14.00,2013-03-12 04:39:00,
2013-03-11 21:40:00,44.1,3.3,30.12,WNW,292,0.0,0.0,18,0.00,,---,0.00,VWS V14.00,2013-03-12 04:40:00,
2013-03-11 21:42:00,43.9,3.1,30.12,WNW,292,0.0,0.0,18,0.00,,---,0.00,VWS V14.00,2013-03-12 04:42:00,
2013-03-11 21:44:00,43.5,2.8,30.12,WNW,292,0.0,0.0,18,0.00,,---,0.00,VWS V14.00,2013-03-12 04:44:00,
2013-03-11 21:45:00,43.5,2.8,30.12,WNW,292,0.0,0.0,18,0.00,,---,0.00,VWS V14.00,2013-03-12 04:45:00,
2013-03-11 21:47:00,43.5,2.8,30.12,WNW,292,0.0,0.0,18,0.00,,---,0.00,VWS V14.00,2013-03-12 04:47:00,
2013-03-11 21:49:00,43.3,2.7,30.12,WNW,292,0.0,0.0,18,0.00,,---,0.00,VWS V14.00,2013-03-12 04:49:00,
2013-03-11 21:50:00,43.3,2.7,30.12,WNW,292,0.0,0.0,18,0.00,,---,0.00,VWS V14.00,2013-03-12 04:50:00,
2013-03-11 21:52:00,43.0,2.4,30.12,WNW,292,0.0,0.0,18,0.00,,---,0.00,VWS V14.00,2013-03-12 04:52:00,
2013-03-11 21:54:00,43.0,2.4,30.12,WNW,292,0.0,0.0,18,0.00,,---,0.00,VWS V14.00,2013-03-12 04:54:00,
2013-03-11 21:55:00,43.0,2.4,30.12,WNW,292,0.0,0.0,18,0.00,,---,0.00,VWS V14.00,2013-03-12 04:55:00,
2013-03-11 21:57:00,43.0,2.4,30.12,WNW,292,0.0,0.0,18,0.00,,---,0.00,VWS V14.00,2013-03-12 04:57:00,
2013-03-11 22:00:00,42.1,1.6,30.12,WNW,292,0.0,0.0,18,0.00,,---,0.00,VWS V14.00,2013-03-12 05:00:00,
2013-03-11 22:02:00,41.5,1.2,30.12,WNW,292,0.0,0.0,18,0.00,,---,0.00,VWS V14.00,2013-03-12 05:02:00,
2013-03-11 22:03:00,41.5,1.2,30.12,WNW,292,0.0,0.0,18,0.00,,---,0.00,VWS V14.00,2013-03-12 05:03:00,
2013-03-11 22:05:00,41.5,1.2,30.12,WNW,292,0.0,0.0,18,0.00,,---,0.00,VWS V14.00,2013-03-12 05:05:00,
2013-03-11 22:07:00,41.0,0.8,30.12,WNW,292,0.0,0.0,18,0.00,,---,0.00,VWS V14.00,2013-03-12 05:07:00,
2013-03-11 22:08:00,41.0,0.8,30.12,WNW,292,0.0,0.0,18,0.00,,---,0.00,VWS V14.00,2013-03-12 05:08:00,
2013-03-11 22:10:00,41.0,0.8,30.12,NW,315,0.0,0.0,18,0.00,,---,0.00,VWS V14.00,2013-03-12 05:10:00,
2013-03-11 22:12:00,41.2,0.9,30.12,NW,315,0.0,0.0,18,0.00,,---,0.00,VWS V14.00,2013-03-12 05:12:00,
2013-03-11 22:13:00,41.5,1.2,30.12,NW,315,0.0,0.0,18,0.00,,---,0.00,VWS V14.00,2013-03-12 05:13:00,
2013-03-11 22:15:00,41.5,1.2,30.12,NW,315,0.0,0.0,18,0.00,,---,0.00,VWS V14.00,2013-03-12 05:15:00,
2013-03-11 22:17:00,42.6,2.1,30.12,NW,315,0.0,0.0,18,0.00,,---,0.00,VWS V14.00,2013-03-12 05:17:00,
2013-03-11 22:19:00,42.8,2.2,30.12,NW,315,0.0,1.6,18,0.00,,---,0.00,VWS V14.00,2013-03-12 05:19:00,
2013-03-11 22:20:00,42.8,2.2,30.12,NW,315,0.0,1.6,18,0.00,,---,0.00,VWS V14.00,2013-03-12 05:20:00,
2013-03-11 22:22:00,43.0,2.4,30.12,NW,315,0.0,0.0,18,0.00,,---,0.00,VWS V14.00,2013-03-12 05:22:00,
2013-03-11 22:24:00,43.0,2.4,30.12,NW,315,0.0,0.0,18,0.00,,---,0.00,VWS V14.00,2013-03-12 05:24:00,
2013-03-11 22:25:00,43.0,2.4,30.12,NW,315,0.0,0.0,18,0.00,,---,0.00,VWS V14.00,2013-03-12 05:25:00,
2013-03-11 22:28:00,43.0,2.4,30.12,NW,315,0.0,0.0,18,0.00,,---,0.00,VWS V14.00,2013-03-12 05:28:00,
2013-03-11 22:29:00,43.0,2.4,30.12,NW,315,0.0,0.0,18,0.00,,---,0.00,VWS V14.00,2013-03-12 05:29:00,
2013-03-11 22:30:00,43.0,2.4,30.12,NW,315,0.0,0.0,18,0.00,,---,0.00,VWS V14.00,2013-03-12 05:30:00,
2013-03-11 22:33:00,43.0,2.4,30.12,NW,315,0.0,0.0,18,0.00,,---,0.00,VWS V14.00,2013-03-12 05:33:00,
2013-03-11 22:34:00,42.1,1.6,30.12,NW,315,0.0,0.0,18,0.00,,---,0.00,VWS V14.00,2013-03-12 05:34:00,
2013-03-11 22:35:00,41.7,1.4,30.12,NW,315,0.0,0.0,18,0.00,,---,0.00,VWS V14.00,2013-03-12 05:35:00,
2013-03-11 22:36:00,41.7,1.4,30.12,NW,315,0.0,0.0,18,0.00,,---,0.00,VWS V14.00,2013-03-12 05:36:00,
2013-03-11 22:38:00,41.4,1.0,30.12,NW,315,0.0,0.0,18,0.00,,---,0.00,VWS V14.00,2013-03-12 05:38:00,
2013-03-11 22:39:00,41.0,0.8,30.12,NW,315,0.0,0.0,18,0.00,,---,0.00,VWS V14.00,2013-03-12 05:39:00,
2013-03-11 22:40:00,41.0,0.8,30.12,NW,315,0.0,1.6,18,0.00,,---,0.00,VWS V14.00,2013-03-12 05:40:00,
2013-03-11 22:41:00,41.0,0.8,30.12,NW,315,0.0,0.0,18,0.00,,---,0.00,VWS V14.00,2013-03-12 05:41:00,
2013-03-11 22:43:00,40.8,0.6,30.12,NW,315,0.0,0.0,18,0.00,,---,0.00,VWS V14.00,2013-03-12 05:43:00,
2013-03-11 22:44:00,40.5,0.3,30.12,WNW,292,0.0,0.0,18,0.00,,---,0.00,VWS V14.00,2013-03-12 05:44:00,
2013-03-11 22:45:00,40.5,0.3,30.12,WNW,292,0.0,0.0,18,0.00,,---,0.00,VWS V14.00,2013-03-12 05:45:00,
2013-03-11 22:46:00,40.1,0.0,30.12,SW,225,0.0,1.1,18,0.00,,---,0.00,VWS V14.00,2013-03-12 05:46:00,
2013-03-11 22:48:00,39.6,-0.4,30.12,SW,225,0.0,1.1,18,0.00,,---,0.00,VWS V14.00,2013-03-12 05:48:00,
2013-03-11 22:49:00,39.6,-0.4,30.12,SW,225,0.0,1.1,18,0.00,,---,0.00,VWS V14.00,2013-03-12 05:49:00,
2013-03-11 22:50:00,39.2,-0.7,30.12,SW,225,0.0,1.1,18,0.00,,---,0.00,VWS V14.00,2013-03-12 05:50:00,
2013-03-11 22:51:00,39.2,-0.7,30.12,SW,225,0.0,0.0,18,0.00,,---,0.00,VWS V14.00,2013-03-12 05:51:00,
2013-03-11 22:54:00,38.8,0.1,30.12,SW,225,0.0,0.0,19,0.00,,---,0.00,VWS V14.00,2013-03-12 05:54:00,
2013-03-11 22:55:00,38.8,0.1,30.12,SW,225,0.0,0.0,19,0.00,,---,0.00,VWS V14.00,2013-03-12 05:55:00,
2013-03-11 22:56:00,38.8,0.1,30.12,SW,225,0.0,0.0,19,0.00,,---,0.00,VWS V14.00,2013-03-12 05:56:00,
2013-03-11 22:59:00,38.8,0.1,30.12,SW,225,0.0,0.0,19,0.00,,---,0.00,VWS V14.00,2013-03-12 05:59:00,
2013-03-11 23:00:00,36.3,-2.0,30.12,NNE,22,0.0,3.8,19,0.00,,---,0.00,VWS V14.00,2013-03-12 06:00:00,
2013-03-11 23:01:00,38.7,0.0,30.12,SW,225,0.0,0.0,19,0.00,,---,0.00,VWS V14.00,2013-03-12 06:01:00,
2013-03-11 23:02:00,38.7,0.0,30.12,WSW,248,0.0,0.0,19,0.00,,---,0.00,VWS V14.00,2013-03-12 06:02:00,
2013-03-11 23:04:00,38.5,-0.2,30.12,WSW,248,0.0,0.0,19,0.00,,---,0.00,VWS V14.00,2013-03-12 06:04:00,
2013-03-11 23:05:00,38.5,-0.2,30.12,WSW,248,0.0,0.0,19,0.00,,---,0.00,VWS V14.00,2013-03-12 06:05:00,
2013-03-11 23:06:00,38.1,-0.5,30.12,WSW,248,0.0,0.0,19,0.00,,---,0.00,VWS V14.00,2013-03-12 06:06:00,
2013-03-11 23:07:00,37.9,-0.6,30.12,WSW,248,0.0,0.0,19,0.00,,---,0.00,VWS V14.00,2013-03-12 06:07:00,
2013-03-11 23:09:00,37.9,-0.6,30.12,WSW,248,0.0,0.0,19,0.00,,---,0.00,VWS V14.00,2013-03-12 06:09:00,
2013-03-11 23:10:00,37.9,-0.6,30.12,WSW,248,0.0,0.0,19,0.00,,---,0.00,VWS V14.00,2013-03-12 06:10:00,
2013-03-11 23:11:00,37.9,-0.6,30.12,WSW,248,0.0,0.0,19,0.00,,---,0.00,VWS V14.00,2013-03-12 06:11:00,
2013-03-11 23:12:00,37.9,-0.6,30.12,WSW,248,0.0,0.0,19,0.00,,---,0.00,VWS V14.00,2013-03-12 06:12:00,
2013-03-11 23:14:00,37.6,-0.9,30.12,WSW,248,0.0,0.0,19,0.00,,---,0.00,VWS V14.00,2013-03-12 06:14:00,
2013-03-11 23:15:00,37.6,-0.9,30.12,WSW,248,0.0,0.0,19,0.00,,---,0.00,VWS V14.00,2013-03-12 06:15:00,
2013-03-11 23:17:00,37.4,-1.1,30.12,WSW,248,0.0,0.0,19,0.00,,---,0.00,VWS V14.00,2013-03-12 06:17:00,
2013-03-11 23:19:00,37.4,-1.1,30.12,WSW,248,0.0,0.0,19,0.00,,---,0.00,VWS V14.00,2013-03-12 06:19:00,
2013-03-11 23:20:00,37.4,-1.1,30.12,WSW,248,0.0,0.0,19,0.00,,---,0.00,VWS V14.00,2013-03-12 06:20:00,
2013-03-11 23:22:00,37.0,-1.4,30.12,WSW,248,0.0,0.0,19,0.00,,---,0.00,VWS V14.00,2013-03-12 06:22:00,
2013-03-11 23:24:00,36.9,-1.5,30.12,WSW,248,0.0,0.0,19,0.00,,---,0.00,VWS V14.00,2013-03-12 06:24:00,
2013-03-11 23:25:00,36.1,1.0,30.12,SSW,202,0.0,0.0,22,0.00,,---,0.00,VWS V14.00,2013-03-12 06:25:00,
2013-03-11 23:26:00,36.7,-1.7,30.12,WSW,248,0.0,0.0,19,0.00,,---,0.00,VWS V14.00,2013-03-12 06:26:00,
2013-03-11 23:27:00,36.7,-1.7,30.12,WSW,248,0.0,0.0,19,0.00,,---,0.00,VWS V14.00,2013-03-12 06:27:00,
2013-03-11 23:28:00,36.7,-1.7,30.12,WSW,248,0.0,0.0,19,0.00,,---,0.00,VWS V14.00,2013-03-12 06:28:00,
2013-03-11 23:30:00,36.7,-1.7,30.12,WSW,248,0.0,0.0,19,0.00,,---,0.00,VWS V14.00,2013-03-12 06:30:00,
2013-03-11 23:31:00,36.9,-1.5,30.12,WSW,248,0.0,0.0,19,0.00,,---,0.00,VWS V14.00,2013-03-12 06:31:00,
2013-03-11 23:32:00,36.9,-1.5,30.12,WSW,248,0.0,0.0,19,0.00,,---,0.00,VWS V14.00,2013-03-12 06:32:00,
2013-03-11 23:33:00,36.9,-1.5,30.12,WSW,248,0.0,0.0,19,0.00,,---,0.00,VWS V14.00,2013-03-12 06:33:00,
2013-03-11 23:35:00,37.0,-1.4,30.12,WSW,248,0.0,0.0,19,0.00,,---,0.00,VWS V14.00,2013-03-12 06:35:00,
2013-03-11 23:36:00,37.0,-1.4,30.12,WSW,248,0.0,0.0,19,0.00,,---,0.00,VWS V14.00,2013-03-12 06:36:00,
2013-03-11 23:37:00,36.7,-1.7,30.12,WSW,248,0.0,0.0,19,0.00,,---,0.00,VWS V14.00,2013-03-12 06:37:00,
2013-03-11 23:38:00,36.7,-1.7,30.12,WSW,248,0.0,0.0,19,0.00,,---,0.00,VWS V14.00,2013-03-12 06:38:00,
2013-03-11 23:40:00,36.3,-2.0,30.12,WSW,248,0.0,0.0,19,0.00,,---,0.00,VWS V14.00,2013-03-12 06:40:00,
2013-03-11 23:41:00,36.3,-2.0,30.12,WSW,248,0.0,0.0,19,0.00,,---,0.00,VWS V14.00,2013-03-12 06:41:00,
2013-03-11 23:42:00,36.3,-2.0,30.12,WSW,248,0.0,0.0,19,0.00,,---,0.00,VWS V14.00,2013-03-12 06:42:00,
2013-03-11 23:43:00,36.3,-2.0,30.12,WSW,248,0.0,0.0,19,0.00,,---,0.00,VWS V14.00,2013-03-12 06:43:00,
2013-03-11 23:45:00,36.3,-2.0,30.12,WSW,248,0.0,0.0,19,0.00,,---,0.00,VWS V14.00,2013-03-12 06:45:00,
2013-03-11 23:47:00,36.7,-1.7,30.12,WSW,248,0.0,0.0,19,0.00,,---,0.00,VWS V14.00,2013-03-12 06:47:00,
2013-03-11 23:48:00,36.7,-1.7,30.12,WSW,248,0.0,0.0,19,0.00,,---,0.00,VWS V14.00,2013-03-12 06:48:00,
2013-03-11 23:50:00,36.7,-1.7,30.12,WSW,248,0.0,0.0,19,0.00,,---,0.00,VWS V14.00,2013-03-12 06:50:00,
2013-03-11 23:52:00,36.1,-2.1,30.12,WSW,248,0.0,0.0,19,0.00,,---,0.00,VWS V14.00,2013-03-12 06:52:00,
2013-03-11 23:53:00,36.1,-2.1,30.12,WSW,248,0.0,0.0,19,0.00,,---,0.00,VWS V14.00,2013-03-12 06:53:00,
2013-03-11 23:55:00,36.1,-2.1,30.12,NNE,22,3.8,3.8,19,0.00,,---,0.00,VWS V14.00,2013-03-12 06:55:00,
2013-03-11 23:57:00,36.0,-2.3,30.12,NNE,22,0.0,3.8,19,0.00,,---,0.00,VWS V14.00,2013-03-12 06:57:00,
2013-03-11 23:58:00,36.1,-2.1,30.12,NNE,22,0.0,3.8,19,0.00,,---,0.00,VWS V14.00,2013-03-12 06:58:00,